<?xml version="1.0" encoding="UTF-8" standalone="no" ?>
<gpx xmlns="http://www.topografix.com/GPX/1/1" xmlns:xsi="http://www.w3.org/2001/XMLSchema-instance" xsi:schemaLocation="http://www.topografix.com/GPX/1/1 http://www.topografix.com/GPX/1/1/gpx.xsd" version="1.1" creator="VisuGPX - https://www.visugpx.com">
  <metadata>
    <name>Aqueduc de Roquefavour_3 févr. 2021</name>
  </metadata>
  <trk>
    <name><![CDATA[Aqueduc de Roquefavour_3 févr. 2021]]></name>
    <extensions>
      <line xmlns="http://www.topografix.com/GPX/gpx_style/0/2">
        <color>0000FF</color>
        <width>4</width>
      </line>
    </extensions>
    <trkseg>
      <trkpt lat="43.53446" lon="5.29888">
        <ele>245</ele>
        <time>2021-02-03T09:19:22Z</time>
      </trkpt>
      <trkpt lat="43.5345" lon="5.29898">
        <ele>244.8</ele>
        <time>2021-02-03T09:23:21Z</time>
      </trkpt>
      <trkpt lat="43.5345" lon="5.2991">
        <ele>244.8</ele>
        <time>2021-02-03T09:23:29Z</time>
      </trkpt>
      <trkpt lat="43.53448" lon="5.29898">
        <ele>244.9</ele>
        <time>2021-02-03T09:23:59Z</time>
      </trkpt>
      <trkpt lat="43.53449" lon="5.29886">
        <ele>244.9</ele>
        <time>2021-02-03T09:26:23Z</time>
      </trkpt>
      <trkpt lat="43.5345" lon="5.29898">
        <ele>244.8</ele>
        <time>2021-02-03T09:26:49Z</time>
      </trkpt>
      <trkpt lat="43.53448" lon="5.29909">
        <ele>244.9</ele>
        <time>2021-02-03T09:26:56Z</time>
      </trkpt>
      <trkpt lat="43.53443" lon="5.29919">
        <ele>245</ele>
        <time>2021-02-03T09:27:04Z</time>
      </trkpt>
      <trkpt lat="43.53438" lon="5.29927">
        <ele>244.8</ele>
        <time>2021-02-03T09:27:13Z</time>
      </trkpt>
      <trkpt lat="43.53431" lon="5.29934">
        <ele>244.9</ele>
        <time>2021-02-03T09:27:22Z</time>
      </trkpt>
      <trkpt lat="43.53423" lon="5.29938">
        <ele>245.2</ele>
        <time>2021-02-03T09:27:30Z</time>
      </trkpt>
      <trkpt lat="43.53416" lon="5.29944">
        <ele>245.3</ele>
        <time>2021-02-03T09:27:37Z</time>
      </trkpt>
      <trkpt lat="43.53408" lon="5.2995">
        <ele>245.2</ele>
        <time>2021-02-03T09:27:45Z</time>
      </trkpt>
      <trkpt lat="43.53401" lon="5.29956">
        <ele>245</ele>
        <time>2021-02-03T09:27:53Z</time>
      </trkpt>
      <trkpt lat="43.53394" lon="5.29962">
        <ele>244.9</ele>
        <time>2021-02-03T09:28:01Z</time>
      </trkpt>
      <trkpt lat="43.53386" lon="5.29966">
        <ele>244.9</ele>
        <time>2021-02-03T09:28:10Z</time>
      </trkpt>
      <trkpt lat="43.53378" lon="5.29973">
        <ele>244.8</ele>
        <time>2021-02-03T09:28:18Z</time>
      </trkpt>
      <trkpt lat="43.53373" lon="5.29982">
        <ele>244.7</ele>
        <time>2021-02-03T09:28:25Z</time>
      </trkpt>
      <trkpt lat="43.53368" lon="5.29991">
        <ele>244.7</ele>
        <time>2021-02-03T09:28:32Z</time>
      </trkpt>
      <trkpt lat="43.53365" lon="5.30003">
        <ele>244.5</ele>
        <time>2021-02-03T09:28:40Z</time>
      </trkpt>
      <trkpt lat="43.53364" lon="5.30014">
        <ele>244.1</ele>
        <time>2021-02-03T09:28:48Z</time>
      </trkpt>
      <trkpt lat="43.53363" lon="5.30025">
        <ele>243.7</ele>
        <time>2021-02-03T09:28:55Z</time>
      </trkpt>
      <trkpt lat="43.53361" lon="5.30036">
        <ele>243.4</ele>
        <time>2021-02-03T09:29:04Z</time>
      </trkpt>
      <trkpt lat="43.5336" lon="5.30048">
        <ele>242.9</ele>
        <time>2021-02-03T09:30:21Z</time>
      </trkpt>
      <trkpt lat="43.53359" lon="5.30059">
        <ele>242.6</ele>
        <time>2021-02-03T09:30:29Z</time>
      </trkpt>
      <trkpt lat="43.53358" lon="5.30071">
        <ele>242.2</ele>
        <time>2021-02-03T09:30:38Z</time>
      </trkpt>
      <trkpt lat="43.53357" lon="5.30083">
        <ele>241.7</ele>
        <time>2021-02-03T09:30:45Z</time>
      </trkpt>
      <trkpt lat="43.53356" lon="5.30095">
        <ele>241.5</ele>
        <time>2021-02-03T09:30:52Z</time>
      </trkpt>
      <trkpt lat="43.53354" lon="5.30106">
        <ele>241.2</ele>
        <time>2021-02-03T09:30:59Z</time>
      </trkpt>
      <trkpt lat="43.53353" lon="5.30117">
        <ele>240.9</ele>
        <time>2021-02-03T09:31:06Z</time>
      </trkpt>
      <trkpt lat="43.53352" lon="5.30129">
        <ele>240.7</ele>
        <time>2021-02-03T09:31:14Z</time>
      </trkpt>
      <trkpt lat="43.53351" lon="5.30142">
        <ele>240.4</ele>
        <time>2021-02-03T09:31:22Z</time>
      </trkpt>
      <trkpt lat="43.53352" lon="5.30153">
        <ele>240.1</ele>
        <time>2021-02-03T09:31:29Z</time>
      </trkpt>
      <trkpt lat="43.5335" lon="5.30165">
        <ele>239.9</ele>
        <time>2021-02-03T09:31:36Z</time>
      </trkpt>
      <trkpt lat="43.53349" lon="5.30177">
        <ele>239.6</ele>
        <time>2021-02-03T09:31:44Z</time>
      </trkpt>
      <trkpt lat="43.53348" lon="5.30189">
        <ele>239.3</ele>
        <time>2021-02-03T09:31:52Z</time>
      </trkpt>
      <trkpt lat="43.53347" lon="5.302">
        <ele>239</ele>
        <time>2021-02-03T09:31:59Z</time>
      </trkpt>
      <trkpt lat="43.53346" lon="5.30211">
        <ele>238.8</ele>
        <time>2021-02-03T09:32:06Z</time>
      </trkpt>
      <trkpt lat="43.53345" lon="5.30223">
        <ele>238.5</ele>
        <time>2021-02-03T09:32:13Z</time>
      </trkpt>
      <trkpt lat="43.53345" lon="5.30235">
        <ele>238.2</ele>
        <time>2021-02-03T09:32:20Z</time>
      </trkpt>
      <trkpt lat="43.53344" lon="5.30246">
        <ele>238</ele>
        <time>2021-02-03T09:32:27Z</time>
      </trkpt>
      <trkpt lat="43.53344" lon="5.30258">
        <ele>237.7</ele>
        <time>2021-02-03T09:32:34Z</time>
      </trkpt>
      <trkpt lat="43.53344" lon="5.3027">
        <ele>237.5</ele>
        <time>2021-02-03T09:32:41Z</time>
      </trkpt>
      <trkpt lat="43.53343" lon="5.3028">
        <ele>237.3</ele>
        <time>2021-02-03T09:32:47Z</time>
      </trkpt>
      <trkpt lat="43.53342" lon="5.30292">
        <ele>237.2</ele>
        <time>2021-02-03T09:32:53Z</time>
      </trkpt>
      <trkpt lat="43.53342" lon="5.30303">
        <ele>237</ele>
        <time>2021-02-03T09:32:59Z</time>
      </trkpt>
      <trkpt lat="43.53341" lon="5.30314">
        <ele>236.9</ele>
        <time>2021-02-03T09:33:06Z</time>
      </trkpt>
      <trkpt lat="43.5334" lon="5.30326">
        <ele>236.7</ele>
        <time>2021-02-03T09:33:12Z</time>
      </trkpt>
      <trkpt lat="43.53339" lon="5.30338">
        <ele>236.4</ele>
        <time>2021-02-03T09:33:19Z</time>
      </trkpt>
      <trkpt lat="43.53338" lon="5.30349">
        <ele>235.9</ele>
        <time>2021-02-03T09:33:25Z</time>
      </trkpt>
      <trkpt lat="43.53337" lon="5.30359">
        <ele>235.5</ele>
        <time>2021-02-03T09:33:30Z</time>
      </trkpt>
      <trkpt lat="43.53337" lon="5.3037">
        <ele>234.9</ele>
        <time>2021-02-03T09:33:35Z</time>
      </trkpt>
      <trkpt lat="43.53336" lon="5.30382">
        <ele>234.5</ele>
        <time>2021-02-03T09:33:41Z</time>
      </trkpt>
      <trkpt lat="43.53334" lon="5.30394">
        <ele>234</ele>
        <time>2021-02-03T09:33:48Z</time>
      </trkpt>
      <trkpt lat="43.53333" lon="5.30405">
        <ele>233.5</ele>
        <time>2021-02-03T09:33:55Z</time>
      </trkpt>
      <trkpt lat="43.53332" lon="5.30417">
        <ele>232.8</ele>
        <time>2021-02-03T09:34:02Z</time>
      </trkpt>
      <trkpt lat="43.5333" lon="5.30427">
        <ele>231.7</ele>
        <time>2021-02-03T09:34:08Z</time>
      </trkpt>
      <trkpt lat="43.53327" lon="5.30439">
        <ele>230.3</ele>
        <time>2021-02-03T09:34:14Z</time>
      </trkpt>
      <trkpt lat="43.53323" lon="5.30449">
        <ele>229.1</ele>
        <time>2021-02-03T09:34:21Z</time>
      </trkpt>
      <trkpt lat="43.53319" lon="5.30457">
        <ele>228.1</ele>
        <time>2021-02-03T09:34:27Z</time>
      </trkpt>
      <trkpt lat="43.5331" lon="5.30461">
        <ele>227.4</ele>
        <time>2021-02-03T09:34:35Z</time>
      </trkpt>
      <trkpt lat="43.53304" lon="5.30468">
        <ele>226.6</ele>
        <time>2021-02-03T09:34:43Z</time>
      </trkpt>
      <trkpt lat="43.53296" lon="5.30473">
        <ele>226</ele>
        <time>2021-02-03T09:34:50Z</time>
      </trkpt>
      <trkpt lat="43.53288" lon="5.30478">
        <ele>225.5</ele>
        <time>2021-02-03T09:34:57Z</time>
      </trkpt>
      <trkpt lat="43.5328" lon="5.30482">
        <ele>225.1</ele>
        <time>2021-02-03T09:35:04Z</time>
      </trkpt>
      <trkpt lat="43.53272" lon="5.30487">
        <ele>224.7</ele>
        <time>2021-02-03T09:35:11Z</time>
      </trkpt>
      <trkpt lat="43.53268" lon="5.30497">
        <ele>224.1</ele>
        <time>2021-02-03T09:35:19Z</time>
      </trkpt>
      <trkpt lat="43.53267" lon="5.30509">
        <ele>222.9</ele>
        <time>2021-02-03T09:35:27Z</time>
      </trkpt>
      <trkpt lat="43.5327" lon="5.30519">
        <ele>221.5</ele>
        <time>2021-02-03T09:35:34Z</time>
      </trkpt>
      <trkpt lat="43.53274" lon="5.30529">
        <ele>220.3</ele>
        <time>2021-02-03T09:35:41Z</time>
      </trkpt>
      <trkpt lat="43.53281" lon="5.30536">
        <ele>219.2</ele>
        <time>2021-02-03T09:35:48Z</time>
      </trkpt>
      <trkpt lat="43.53288" lon="5.3054">
        <ele>218.6</ele>
        <time>2021-02-03T09:35:55Z</time>
      </trkpt>
      <trkpt lat="43.53297" lon="5.3054">
        <ele>218.4</ele>
        <time>2021-02-03T09:36:02Z</time>
      </trkpt>
      <trkpt lat="43.53306" lon="5.3054">
        <ele>218.2</ele>
        <time>2021-02-03T09:36:09Z</time>
      </trkpt>
      <trkpt lat="43.53314" lon="5.30539">
        <ele>218.2</ele>
        <time>2021-02-03T09:36:19Z</time>
      </trkpt>
      <trkpt lat="43.53322" lon="5.30538">
        <ele>218.2</ele>
        <time>2021-02-03T09:36:25Z</time>
      </trkpt>
      <trkpt lat="43.53331" lon="5.30538">
        <ele>218.2</ele>
        <time>2021-02-03T09:36:31Z</time>
      </trkpt>
      <trkpt lat="43.53339" lon="5.30538">
        <ele>217.3</ele>
        <time>2021-02-03T09:36:37Z</time>
      </trkpt>
      <trkpt lat="43.53347" lon="5.30536">
        <ele>216.3</ele>
        <time>2021-02-03T09:36:43Z</time>
      </trkpt>
      <trkpt lat="43.53355" lon="5.30535">
        <ele>215.3</ele>
        <time>2021-02-03T09:36:51Z</time>
      </trkpt>
      <trkpt lat="43.53364" lon="5.30535">
        <ele>214.2</ele>
        <time>2021-02-03T09:36:59Z</time>
      </trkpt>
      <trkpt lat="43.53372" lon="5.30537">
        <ele>212.6</ele>
        <time>2021-02-03T09:37:07Z</time>
      </trkpt>
      <trkpt lat="43.53377" lon="5.30546">
        <ele>210.1</ele>
        <time>2021-02-03T09:37:16Z</time>
      </trkpt>
      <trkpt lat="43.53379" lon="5.30558">
        <ele>207.8</ele>
        <time>2021-02-03T09:37:25Z</time>
      </trkpt>
      <trkpt lat="43.53374" lon="5.30567">
        <ele>207</ele>
        <time>2021-02-03T09:37:33Z</time>
      </trkpt>
      <trkpt lat="43.53367" lon="5.30573">
        <ele>207.1</ele>
        <time>2021-02-03T09:37:42Z</time>
      </trkpt>
      <trkpt lat="43.53362" lon="5.30583">
        <ele>206.3</ele>
        <time>2021-02-03T09:37:53Z</time>
      </trkpt>
      <trkpt lat="43.53358" lon="5.30595">
        <ele>205</ele>
        <time>2021-02-03T09:38:01Z</time>
      </trkpt>
      <trkpt lat="43.53355" lon="5.30604">
        <ele>204.1</ele>
        <time>2021-02-03T09:38:08Z</time>
      </trkpt>
      <trkpt lat="43.53351" lon="5.30614">
        <ele>203</ele>
        <time>2021-02-03T09:38:15Z</time>
      </trkpt>
      <trkpt lat="43.53347" lon="5.30624">
        <ele>202.1</ele>
        <time>2021-02-03T09:38:22Z</time>
      </trkpt>
      <trkpt lat="43.53343" lon="5.30633">
        <ele>201.4</ele>
        <time>2021-02-03T09:38:29Z</time>
      </trkpt>
      <trkpt lat="43.53337" lon="5.30642">
        <ele>200.6</ele>
        <time>2021-02-03T09:38:37Z</time>
      </trkpt>
      <trkpt lat="43.53331" lon="5.30651">
        <ele>199.8</ele>
        <time>2021-02-03T09:38:45Z</time>
      </trkpt>
      <trkpt lat="43.53324" lon="5.30657">
        <ele>199</ele>
        <time>2021-02-03T09:38:52Z</time>
      </trkpt>
      <trkpt lat="43.53317" lon="5.30662">
        <ele>198.4</ele>
        <time>2021-02-03T09:38:59Z</time>
      </trkpt>
      <trkpt lat="43.53309" lon="5.30667">
        <ele>197.8</ele>
        <time>2021-02-03T09:39:07Z</time>
      </trkpt>
      <trkpt lat="43.533" lon="5.30672">
        <ele>197.5</ele>
        <time>2021-02-03T09:39:15Z</time>
      </trkpt>
      <trkpt lat="43.53292" lon="5.30676">
        <ele>197.2</ele>
        <time>2021-02-03T09:39:23Z</time>
      </trkpt>
      <trkpt lat="43.53284" lon="5.3068">
        <ele>197</ele>
        <time>2021-02-03T09:39:31Z</time>
      </trkpt>
      <trkpt lat="43.53276" lon="5.30679">
        <ele>197.5</ele>
        <time>2021-02-03T09:39:40Z</time>
      </trkpt>
      <trkpt lat="43.53268" lon="5.30681">
        <ele>197.4</ele>
        <time>2021-02-03T09:39:51Z</time>
      </trkpt>
      <trkpt lat="43.5326" lon="5.30685">
        <ele>197.2</ele>
        <time>2021-02-03T09:40:02Z</time>
      </trkpt>
      <trkpt lat="43.53251" lon="5.30686">
        <ele>197.4</ele>
        <time>2021-02-03T09:40:13Z</time>
      </trkpt>
      <trkpt lat="43.53242" lon="5.30687">
        <ele>197.2</ele>
        <time>2021-02-03T09:40:23Z</time>
      </trkpt>
      <trkpt lat="43.53234" lon="5.30684">
        <ele>197.3</ele>
        <time>2021-02-03T09:40:32Z</time>
      </trkpt>
      <trkpt lat="43.53225" lon="5.30681">
        <ele>197.5</ele>
        <time>2021-02-03T09:40:42Z</time>
      </trkpt>
      <trkpt lat="43.53217" lon="5.30683">
        <ele>197</ele>
        <time>2021-02-03T09:40:49Z</time>
      </trkpt>
      <trkpt lat="43.53209" lon="5.30684">
        <ele>196.6</ele>
        <time>2021-02-03T09:40:57Z</time>
      </trkpt>
      <trkpt lat="43.532" lon="5.30684">
        <ele>196.5</ele>
        <time>2021-02-03T09:41:04Z</time>
      </trkpt>
      <trkpt lat="43.53192" lon="5.30684">
        <ele>196.2</ele>
        <time>2021-02-03T09:41:11Z</time>
      </trkpt>
      <trkpt lat="43.53183" lon="5.30686">
        <ele>195.8</ele>
        <time>2021-02-03T09:41:18Z</time>
      </trkpt>
      <trkpt lat="43.53174" lon="5.30687">
        <ele>195.5</ele>
        <time>2021-02-03T09:41:25Z</time>
      </trkpt>
      <trkpt lat="43.53166" lon="5.30687">
        <ele>195.2</ele>
        <time>2021-02-03T09:41:32Z</time>
      </trkpt>
      <trkpt lat="43.53158" lon="5.30688">
        <ele>195</ele>
        <time>2021-02-03T09:41:38Z</time>
      </trkpt>
      <trkpt lat="43.5315" lon="5.30692">
        <ele>194.5</ele>
        <time>2021-02-03T09:41:45Z</time>
      </trkpt>
      <trkpt lat="43.53142" lon="5.30696">
        <ele>194</ele>
        <time>2021-02-03T09:41:53Z</time>
      </trkpt>
      <trkpt lat="43.53133" lon="5.30697">
        <ele>193.7</ele>
        <time>2021-02-03T09:42:01Z</time>
      </trkpt>
      <trkpt lat="43.53124" lon="5.30699">
        <ele>193.4</ele>
        <time>2021-02-03T09:42:09Z</time>
      </trkpt>
      <trkpt lat="43.53117" lon="5.30703">
        <ele>192.9</ele>
        <time>2021-02-03T09:42:17Z</time>
      </trkpt>
      <trkpt lat="43.53109" lon="5.30698">
        <ele>193</ele>
        <time>2021-02-03T09:42:26Z</time>
      </trkpt>
      <trkpt lat="43.53104" lon="5.30688">
        <ele>193.5</ele>
        <time>2021-02-03T09:42:35Z</time>
      </trkpt>
      <trkpt lat="43.53098" lon="5.3068">
        <ele>193.8</ele>
        <time>2021-02-03T09:43:01Z</time>
      </trkpt>
      <trkpt lat="43.53091" lon="5.30673">
        <ele>194</ele>
        <time>2021-02-03T09:43:16Z</time>
      </trkpt>
      <trkpt lat="43.53084" lon="5.30666">
        <ele>194.1</ele>
        <time>2021-02-03T09:43:28Z</time>
      </trkpt>
      <trkpt lat="43.53077" lon="5.30659">
        <ele>195.4</ele>
        <time>2021-02-03T09:43:39Z</time>
      </trkpt>
      <trkpt lat="43.53068" lon="5.30661">
        <ele>196.3</ele>
        <time>2021-02-03T09:43:49Z</time>
      </trkpt>
      <trkpt lat="43.53063" lon="5.30671">
        <ele>196.1</ele>
        <time>2021-02-03T09:43:59Z</time>
      </trkpt>
      <trkpt lat="43.53058" lon="5.3068">
        <ele>196</ele>
        <time>2021-02-03T09:44:09Z</time>
      </trkpt>
      <trkpt lat="43.53052" lon="5.30689">
        <ele>195.8</ele>
        <time>2021-02-03T09:44:19Z</time>
      </trkpt>
      <trkpt lat="43.53047" lon="5.30698">
        <ele>195.5</ele>
        <time>2021-02-03T09:44:28Z</time>
      </trkpt>
      <trkpt lat="43.53041" lon="5.30707">
        <ele>195.1</ele>
        <time>2021-02-03T09:44:37Z</time>
      </trkpt>
      <trkpt lat="43.53036" lon="5.30716">
        <ele>194.6</ele>
        <time>2021-02-03T09:44:44Z</time>
      </trkpt>
      <trkpt lat="43.5303" lon="5.30724">
        <ele>194.1</ele>
        <time>2021-02-03T09:44:53Z</time>
      </trkpt>
      <trkpt lat="43.53025" lon="5.30733">
        <ele>193.3</ele>
        <time>2021-02-03T09:45:00Z</time>
      </trkpt>
      <trkpt lat="43.5302" lon="5.30743">
        <ele>192.4</ele>
        <time>2021-02-03T09:45:08Z</time>
      </trkpt>
      <trkpt lat="43.53014" lon="5.30751">
        <ele>191.6</ele>
        <time>2021-02-03T09:45:15Z</time>
      </trkpt>
      <trkpt lat="43.53008" lon="5.30759">
        <ele>191</ele>
        <time>2021-02-03T09:45:23Z</time>
      </trkpt>
      <trkpt lat="43.53001" lon="5.30766">
        <ele>190.4</ele>
        <time>2021-02-03T09:45:31Z</time>
      </trkpt>
      <trkpt lat="43.53006" lon="5.30776">
        <ele>189.6</ele>
        <time>2021-02-03T09:45:44Z</time>
      </trkpt>
      <trkpt lat="43.53011" lon="5.30785">
        <ele>188.8</ele>
        <time>2021-02-03T09:45:54Z</time>
      </trkpt>
      <trkpt lat="43.53012" lon="5.30797">
        <ele>187.8</ele>
        <time>2021-02-03T09:46:04Z</time>
      </trkpt>
      <trkpt lat="43.53019" lon="5.30805">
        <ele>187.4</ele>
        <time>2021-02-03T09:46:13Z</time>
      </trkpt>
      <trkpt lat="43.53025" lon="5.30813">
        <ele>187.2</ele>
        <time>2021-02-03T09:46:22Z</time>
      </trkpt>
      <trkpt lat="43.53032" lon="5.30821">
        <ele>187</ele>
        <time>2021-02-03T09:46:31Z</time>
      </trkpt>
      <trkpt lat="43.53038" lon="5.3083">
        <ele>186.9</ele>
        <time>2021-02-03T09:46:40Z</time>
      </trkpt>
      <trkpt lat="43.53043" lon="5.30839">
        <ele>187.3</ele>
        <time>2021-02-03T09:46:49Z</time>
      </trkpt>
      <trkpt lat="43.53048" lon="5.30849">
        <ele>188.1</ele>
        <time>2021-02-03T09:46:57Z</time>
      </trkpt>
      <trkpt lat="43.53052" lon="5.30859">
        <ele>188.9</ele>
        <time>2021-02-03T09:47:06Z</time>
      </trkpt>
      <trkpt lat="43.53055" lon="5.30871">
        <ele>189.7</ele>
        <time>2021-02-03T09:47:17Z</time>
      </trkpt>
      <trkpt lat="43.53058" lon="5.30883">
        <ele>190.6</ele>
        <time>2021-02-03T09:47:25Z</time>
      </trkpt>
      <trkpt lat="43.53055" lon="5.30894">
        <ele>190.8</ele>
        <time>2021-02-03T09:47:34Z</time>
      </trkpt>
      <trkpt lat="43.53054" lon="5.30906">
        <ele>191.2</ele>
        <time>2021-02-03T09:47:42Z</time>
      </trkpt>
      <trkpt lat="43.53051" lon="5.30917">
        <ele>191.4</ele>
        <time>2021-02-03T09:47:50Z</time>
      </trkpt>
      <trkpt lat="43.53047" lon="5.30927">
        <ele>191</ele>
        <time>2021-02-03T09:47:59Z</time>
      </trkpt>
      <trkpt lat="43.53041" lon="5.30937">
        <ele>190.6</ele>
        <time>2021-02-03T09:48:10Z</time>
      </trkpt>
      <trkpt lat="43.53037" lon="5.30947">
        <ele>190.2</ele>
        <time>2021-02-03T09:48:37Z</time>
      </trkpt>
      <trkpt lat="43.53037" lon="5.30958">
        <ele>190.6</ele>
        <time>2021-02-03T09:48:44Z</time>
      </trkpt>
      <trkpt lat="43.53038" lon="5.30969">
        <ele>191.1</ele>
        <time>2021-02-03T09:48:52Z</time>
      </trkpt>
      <trkpt lat="43.53041" lon="5.3098">
        <ele>191.9</ele>
        <time>2021-02-03T09:49:00Z</time>
      </trkpt>
      <trkpt lat="43.5305" lon="5.30979">
        <ele>193</ele>
        <time>2021-02-03T09:49:09Z</time>
      </trkpt>
      <trkpt lat="43.53057" lon="5.30973">
        <ele>193.7</ele>
        <time>2021-02-03T09:49:16Z</time>
      </trkpt>
      <trkpt lat="43.53062" lon="5.30964">
        <ele>194.2</ele>
        <time>2021-02-03T09:49:24Z</time>
      </trkpt>
      <trkpt lat="43.5307" lon="5.30959">
        <ele>195.2</ele>
        <time>2021-02-03T09:49:32Z</time>
      </trkpt>
      <trkpt lat="43.53077" lon="5.30967">
        <ele>196.3</ele>
        <time>2021-02-03T09:49:40Z</time>
      </trkpt>
      <trkpt lat="43.53081" lon="5.30977">
        <ele>197.2</ele>
        <time>2021-02-03T09:49:48Z</time>
      </trkpt>
      <trkpt lat="43.53085" lon="5.30988">
        <ele>197.8</ele>
        <time>2021-02-03T09:49:55Z</time>
      </trkpt>
      <trkpt lat="43.53088" lon="5.30998">
        <ele>198.5</ele>
        <time>2021-02-03T09:50:02Z</time>
      </trkpt>
      <trkpt lat="43.53092" lon="5.31008">
        <ele>198.9</ele>
        <time>2021-02-03T09:50:10Z</time>
      </trkpt>
      <trkpt lat="43.531" lon="5.31015">
        <ele>199.6</ele>
        <time>2021-02-03T09:50:18Z</time>
      </trkpt>
      <trkpt lat="43.53107" lon="5.3102">
        <ele>200.4</ele>
        <time>2021-02-03T09:50:25Z</time>
      </trkpt>
      <trkpt lat="43.53116" lon="5.31023">
        <ele>201.4</ele>
        <time>2021-02-03T09:50:32Z</time>
      </trkpt>
      <trkpt lat="43.53123" lon="5.31028">
        <ele>202.1</ele>
        <time>2021-02-03T09:50:38Z</time>
      </trkpt>
      <trkpt lat="43.53129" lon="5.31034">
        <ele>202.8</ele>
        <time>2021-02-03T09:50:44Z</time>
      </trkpt>
      <trkpt lat="43.53136" lon="5.31039">
        <ele>203.5</ele>
        <time>2021-02-03T09:50:51Z</time>
      </trkpt>
      <trkpt lat="43.53144" lon="5.31041">
        <ele>204.4</ele>
        <time>2021-02-03T09:50:58Z</time>
      </trkpt>
      <trkpt lat="43.53153" lon="5.31041">
        <ele>205.4</ele>
        <time>2021-02-03T09:51:05Z</time>
      </trkpt>
      <trkpt lat="43.53161" lon="5.31041">
        <ele>206.4</ele>
        <time>2021-02-03T09:51:12Z</time>
      </trkpt>
      <trkpt lat="43.53169" lon="5.31043">
        <ele>207.2</ele>
        <time>2021-02-03T09:51:19Z</time>
      </trkpt>
      <trkpt lat="43.53175" lon="5.31052">
        <ele>207.6</ele>
        <time>2021-02-03T09:51:27Z</time>
      </trkpt>
      <trkpt lat="43.53182" lon="5.31058">
        <ele>208.1</ele>
        <time>2021-02-03T09:51:34Z</time>
      </trkpt>
      <trkpt lat="43.53189" lon="5.31064">
        <ele>208.7</ele>
        <time>2021-02-03T09:51:42Z</time>
      </trkpt>
      <trkpt lat="43.53197" lon="5.3107">
        <ele>209.3</ele>
        <time>2021-02-03T09:51:50Z</time>
      </trkpt>
      <trkpt lat="43.53204" lon="5.31075">
        <ele>210</ele>
        <time>2021-02-03T09:51:57Z</time>
      </trkpt>
      <trkpt lat="43.53212" lon="5.31079">
        <ele>210.7</ele>
        <time>2021-02-03T09:52:04Z</time>
      </trkpt>
      <trkpt lat="43.5322" lon="5.31083">
        <ele>211.4</ele>
        <time>2021-02-03T09:52:11Z</time>
      </trkpt>
      <trkpt lat="43.53228" lon="5.31086">
        <ele>212</ele>
        <time>2021-02-03T09:52:20Z</time>
      </trkpt>
      <trkpt lat="43.53229" lon="5.31098">
        <ele>211.5</ele>
        <time>2021-02-03T09:52:41Z</time>
      </trkpt>
      <trkpt lat="43.53233" lon="5.31108">
        <ele>211.3</ele>
        <time>2021-02-03T09:52:50Z</time>
      </trkpt>
      <trkpt lat="43.53239" lon="5.31116">
        <ele>211.5</ele>
        <time>2021-02-03T09:52:58Z</time>
      </trkpt>
      <trkpt lat="43.53246" lon="5.3112">
        <ele>211.9</ele>
        <time>2021-02-03T09:53:05Z</time>
      </trkpt>
      <trkpt lat="43.53255" lon="5.3112">
        <ele>212.4</ele>
        <time>2021-02-03T09:53:15Z</time>
      </trkpt>
      <trkpt lat="43.53264" lon="5.31117">
        <ele>212.9</ele>
        <time>2021-02-03T09:53:26Z</time>
      </trkpt>
      <trkpt lat="43.53273" lon="5.31116">
        <ele>213.2</ele>
        <time>2021-02-03T09:53:35Z</time>
      </trkpt>
      <trkpt lat="43.5328" lon="5.31122">
        <ele>213.2</ele>
        <time>2021-02-03T09:53:43Z</time>
      </trkpt>
      <trkpt lat="43.53288" lon="5.31127">
        <ele>213.3</ele>
        <time>2021-02-03T09:53:51Z</time>
      </trkpt>
      <trkpt lat="43.53295" lon="5.3113">
        <ele>213.5</ele>
        <time>2021-02-03T09:53:58Z</time>
      </trkpt>
      <trkpt lat="43.53304" lon="5.31129">
        <ele>213.8</ele>
        <time>2021-02-03T09:54:06Z</time>
      </trkpt>
      <trkpt lat="43.53313" lon="5.31127">
        <ele>214.2</ele>
        <time>2021-02-03T09:54:14Z</time>
      </trkpt>
      <trkpt lat="43.53321" lon="5.31124">
        <ele>214.6</ele>
        <time>2021-02-03T09:54:22Z</time>
      </trkpt>
      <trkpt lat="43.53329" lon="5.3112">
        <ele>215</ele>
        <time>2021-02-03T09:54:30Z</time>
      </trkpt>
      <trkpt lat="43.53337" lon="5.31115">
        <ele>215.4</ele>
        <time>2021-02-03T09:54:37Z</time>
      </trkpt>
      <trkpt lat="43.53345" lon="5.3111">
        <ele>215.7</ele>
        <time>2021-02-03T09:54:44Z</time>
      </trkpt>
      <trkpt lat="43.53353" lon="5.31107">
        <ele>216</ele>
        <time>2021-02-03T09:54:51Z</time>
      </trkpt>
      <trkpt lat="43.53361" lon="5.31103">
        <ele>216.3</ele>
        <time>2021-02-03T09:54:58Z</time>
      </trkpt>
      <trkpt lat="43.5337" lon="5.31102">
        <ele>216.5</ele>
        <time>2021-02-03T09:55:05Z</time>
      </trkpt>
      <trkpt lat="43.53378" lon="5.31099">
        <ele>216.8</ele>
        <time>2021-02-03T09:55:12Z</time>
      </trkpt>
      <trkpt lat="43.53387" lon="5.31096">
        <ele>217.1</ele>
        <time>2021-02-03T09:55:20Z</time>
      </trkpt>
      <trkpt lat="43.53395" lon="5.31091">
        <ele>217.4</ele>
        <time>2021-02-03T09:55:28Z</time>
      </trkpt>
      <trkpt lat="43.53403" lon="5.31088">
        <ele>217.6</ele>
        <time>2021-02-03T09:55:35Z</time>
      </trkpt>
      <trkpt lat="43.5341" lon="5.31085">
        <ele>217.8</ele>
        <time>2021-02-03T09:55:42Z</time>
      </trkpt>
      <trkpt lat="43.53418" lon="5.31081">
        <ele>218.1</ele>
        <time>2021-02-03T09:55:49Z</time>
      </trkpt>
      <trkpt lat="43.53426" lon="5.31076">
        <ele>218.7</ele>
        <time>2021-02-03T09:55:57Z</time>
      </trkpt>
      <trkpt lat="43.53434" lon="5.31074">
        <ele>219.3</ele>
        <time>2021-02-03T09:56:05Z</time>
      </trkpt>
      <trkpt lat="43.53442" lon="5.31071">
        <ele>219.9</ele>
        <time>2021-02-03T09:56:13Z</time>
      </trkpt>
      <trkpt lat="43.5345" lon="5.31068">
        <ele>220.5</ele>
        <time>2021-02-03T09:56:21Z</time>
      </trkpt>
      <trkpt lat="43.53458" lon="5.31064">
        <ele>221.2</ele>
        <time>2021-02-03T09:56:29Z</time>
      </trkpt>
      <trkpt lat="43.53466" lon="5.31062">
        <ele>221.9</ele>
        <time>2021-02-03T09:56:36Z</time>
      </trkpt>
      <trkpt lat="43.53474" lon="5.3106">
        <ele>222.5</ele>
        <time>2021-02-03T09:56:44Z</time>
      </trkpt>
      <trkpt lat="43.53482" lon="5.31057">
        <ele>223.2</ele>
        <time>2021-02-03T09:56:52Z</time>
      </trkpt>
      <trkpt lat="43.5349" lon="5.31053">
        <ele>223.9</ele>
        <time>2021-02-03T09:57:01Z</time>
      </trkpt>
      <trkpt lat="43.53498" lon="5.3105">
        <ele>224.7</ele>
        <time>2021-02-03T09:57:09Z</time>
      </trkpt>
      <trkpt lat="43.53506" lon="5.31048">
        <ele>225</ele>
        <time>2021-02-03T09:57:16Z</time>
      </trkpt>
      <trkpt lat="43.53514" lon="5.31045">
        <ele>225.2</ele>
        <time>2021-02-03T09:57:23Z</time>
      </trkpt>
      <trkpt lat="43.53522" lon="5.31042">
        <ele>225.4</ele>
        <time>2021-02-03T09:57:30Z</time>
      </trkpt>
      <trkpt lat="43.5353" lon="5.3104">
        <ele>225.6</ele>
        <time>2021-02-03T09:57:37Z</time>
      </trkpt>
      <trkpt lat="43.53539" lon="5.31037">
        <ele>225.7</ele>
        <time>2021-02-03T09:57:44Z</time>
      </trkpt>
      <trkpt lat="43.53547" lon="5.31035">
        <ele>225.9</ele>
        <time>2021-02-03T09:57:51Z</time>
      </trkpt>
      <trkpt lat="43.53554" lon="5.31031">
        <ele>226</ele>
        <time>2021-02-03T09:57:58Z</time>
      </trkpt>
      <trkpt lat="43.53562" lon="5.31028">
        <ele>226.1</ele>
        <time>2021-02-03T09:58:05Z</time>
      </trkpt>
      <trkpt lat="43.5357" lon="5.31024">
        <ele>226.1</ele>
        <time>2021-02-03T09:58:12Z</time>
      </trkpt>
      <trkpt lat="43.53578" lon="5.3102">
        <ele>226.2</ele>
        <time>2021-02-03T09:58:19Z</time>
      </trkpt>
      <trkpt lat="43.53587" lon="5.31016">
        <ele>226.1</ele>
        <time>2021-02-03T09:58:26Z</time>
      </trkpt>
      <trkpt lat="43.53595" lon="5.31014">
        <ele>225.9</ele>
        <time>2021-02-03T09:58:33Z</time>
      </trkpt>
      <trkpt lat="43.53603" lon="5.31011">
        <ele>225.7</ele>
        <time>2021-02-03T09:58:39Z</time>
      </trkpt>
      <trkpt lat="43.5361" lon="5.31011">
        <ele>225.6</ele>
        <time>2021-02-03T09:58:45Z</time>
      </trkpt>
      <trkpt lat="43.53619" lon="5.31012">
        <ele>225.4</ele>
        <time>2021-02-03T09:58:52Z</time>
      </trkpt>
      <trkpt lat="43.53627" lon="5.31015">
        <ele>225.3</ele>
        <time>2021-02-03T09:58:59Z</time>
      </trkpt>
      <trkpt lat="43.53635" lon="5.31016">
        <ele>225.2</ele>
        <time>2021-02-03T09:59:06Z</time>
      </trkpt>
      <trkpt lat="43.53643" lon="5.31015">
        <ele>225</ele>
        <time>2021-02-03T09:59:13Z</time>
      </trkpt>
      <trkpt lat="43.53651" lon="5.31013">
        <ele>224.8</ele>
        <time>2021-02-03T09:59:20Z</time>
      </trkpt>
      <trkpt lat="43.5366" lon="5.31012">
        <ele>224.6</ele>
        <time>2021-02-03T09:59:27Z</time>
      </trkpt>
      <trkpt lat="43.53668" lon="5.31014">
        <ele>224.3</ele>
        <time>2021-02-03T09:59:34Z</time>
      </trkpt>
      <trkpt lat="43.53676" lon="5.31018">
        <ele>223.4</ele>
        <time>2021-02-03T09:59:41Z</time>
      </trkpt>
      <trkpt lat="43.53681" lon="5.31027">
        <ele>223.1</ele>
        <time>2021-02-03T09:59:49Z</time>
      </trkpt>
      <trkpt lat="43.53684" lon="5.31038">
        <ele>223.3</ele>
        <time>2021-02-03T09:59:57Z</time>
      </trkpt>
      <trkpt lat="43.53687" lon="5.31049">
        <ele>223.5</ele>
        <time>2021-02-03T10:00:04Z</time>
      </trkpt>
      <trkpt lat="43.5369" lon="5.3106">
        <ele>223.8</ele>
        <time>2021-02-03T10:00:11Z</time>
      </trkpt>
      <trkpt lat="43.53692" lon="5.31071">
        <ele>224.2</ele>
        <time>2021-02-03T10:00:18Z</time>
      </trkpt>
      <trkpt lat="43.53696" lon="5.31081">
        <ele>224.4</ele>
        <time>2021-02-03T10:00:24Z</time>
      </trkpt>
      <trkpt lat="43.537" lon="5.31091">
        <ele>224.6</ele>
        <time>2021-02-03T10:00:30Z</time>
      </trkpt>
      <trkpt lat="43.53706" lon="5.31099">
        <ele>224.7</ele>
        <time>2021-02-03T10:00:36Z</time>
      </trkpt>
      <trkpt lat="43.53714" lon="5.31103">
        <ele>224.5</ele>
        <time>2021-02-03T10:00:43Z</time>
      </trkpt>
      <trkpt lat="43.53722" lon="5.31107">
        <ele>224.1</ele>
        <time>2021-02-03T10:00:50Z</time>
      </trkpt>
      <trkpt lat="43.5373" lon="5.3111">
        <ele>223.9</ele>
        <time>2021-02-03T10:00:55Z</time>
      </trkpt>
      <trkpt lat="43.53738" lon="5.31113">
        <ele>223.7</ele>
        <time>2021-02-03T10:01:01Z</time>
      </trkpt>
      <trkpt lat="43.53746" lon="5.31118">
        <ele>223.6</ele>
        <time>2021-02-03T10:01:07Z</time>
      </trkpt>
      <trkpt lat="43.53753" lon="5.31125">
        <ele>223.8</ele>
        <time>2021-02-03T10:01:13Z</time>
      </trkpt>
      <trkpt lat="43.53759" lon="5.31131">
        <ele>223.8</ele>
        <time>2021-02-03T10:01:19Z</time>
      </trkpt>
      <trkpt lat="43.53767" lon="5.31135">
        <ele>223.6</ele>
        <time>2021-02-03T10:01:25Z</time>
      </trkpt>
      <trkpt lat="43.53775" lon="5.31136">
        <ele>223</ele>
        <time>2021-02-03T10:01:31Z</time>
      </trkpt>
      <trkpt lat="43.53783" lon="5.31137">
        <ele>222.4</ele>
        <time>2021-02-03T10:01:37Z</time>
      </trkpt>
      <trkpt lat="43.53791" lon="5.31139">
        <ele>221.9</ele>
        <time>2021-02-03T10:01:43Z</time>
      </trkpt>
      <trkpt lat="43.53783" lon="5.31135">
        <ele>222.2</ele>
        <time>2021-02-03T10:07:13Z</time>
      </trkpt>
      <trkpt lat="43.53774" lon="5.31135">
        <ele>222.9</ele>
        <time>2021-02-03T10:07:23Z</time>
      </trkpt>
      <trkpt lat="43.53783" lon="5.31139">
        <ele>222.6</ele>
        <time>2021-02-03T10:11:41Z</time>
      </trkpt>
      <trkpt lat="43.53792" lon="5.3114">
        <ele>222</ele>
        <time>2021-02-03T10:11:49Z</time>
      </trkpt>
      <trkpt lat="43.53797" lon="5.31149">
        <ele>222.6</ele>
        <time>2021-02-03T10:11:57Z</time>
      </trkpt>
      <trkpt lat="43.538" lon="5.3116">
        <ele>223.6</ele>
        <time>2021-02-03T10:12:05Z</time>
      </trkpt>
      <trkpt lat="43.53805" lon="5.3117">
        <ele>224.4</ele>
        <time>2021-02-03T10:12:14Z</time>
      </trkpt>
      <trkpt lat="43.53811" lon="5.31177">
        <ele>224.6</ele>
        <time>2021-02-03T10:12:22Z</time>
      </trkpt>
      <trkpt lat="43.53819" lon="5.31182">
        <ele>224.6</ele>
        <time>2021-02-03T10:12:30Z</time>
      </trkpt>
      <trkpt lat="43.53827" lon="5.31188">
        <ele>224.6</ele>
        <time>2021-02-03T10:12:38Z</time>
      </trkpt>
      <trkpt lat="43.53834" lon="5.31195">
        <ele>225</ele>
        <time>2021-02-03T10:12:45Z</time>
      </trkpt>
      <trkpt lat="43.53839" lon="5.31202">
        <ele>225.2</ele>
        <time>2021-02-03T10:12:51Z</time>
      </trkpt>
      <trkpt lat="43.53845" lon="5.31209">
        <ele>225.4</ele>
        <time>2021-02-03T10:12:57Z</time>
      </trkpt>
      <trkpt lat="43.5385" lon="5.31219">
        <ele>225.9</ele>
        <time>2021-02-03T10:13:04Z</time>
      </trkpt>
      <trkpt lat="43.53853" lon="5.3123">
        <ele>226.8</ele>
        <time>2021-02-03T10:13:12Z</time>
      </trkpt>
      <trkpt lat="43.53855" lon="5.31241">
        <ele>227.7</ele>
        <time>2021-02-03T10:13:19Z</time>
      </trkpt>
      <trkpt lat="43.53855" lon="5.31253">
        <ele>228.7</ele>
        <time>2021-02-03T10:13:27Z</time>
      </trkpt>
      <trkpt lat="43.53857" lon="5.31264">
        <ele>229</ele>
        <time>2021-02-03T10:13:34Z</time>
      </trkpt>
      <trkpt lat="43.53857" lon="5.31276">
        <ele>229.3</ele>
        <time>2021-02-03T10:13:41Z</time>
      </trkpt>
      <trkpt lat="43.5386" lon="5.31286">
        <ele>229.4</ele>
        <time>2021-02-03T10:13:48Z</time>
      </trkpt>
      <trkpt lat="43.53864" lon="5.31297">
        <ele>229.4</ele>
        <time>2021-02-03T10:13:56Z</time>
      </trkpt>
      <trkpt lat="43.53868" lon="5.31307">
        <ele>229.4</ele>
        <time>2021-02-03T10:14:04Z</time>
      </trkpt>
      <trkpt lat="43.53875" lon="5.31314">
        <ele>229.2</ele>
        <time>2021-02-03T10:14:12Z</time>
      </trkpt>
      <trkpt lat="43.53882" lon="5.31321">
        <ele>229</ele>
        <time>2021-02-03T10:14:19Z</time>
      </trkpt>
      <trkpt lat="43.53888" lon="5.31327">
        <ele>228.8</ele>
        <time>2021-02-03T10:14:26Z</time>
      </trkpt>
      <trkpt lat="43.53894" lon="5.31336">
        <ele>228.8</ele>
        <time>2021-02-03T10:14:34Z</time>
      </trkpt>
      <trkpt lat="43.53899" lon="5.31345">
        <ele>228.7</ele>
        <time>2021-02-03T10:14:41Z</time>
      </trkpt>
      <trkpt lat="43.53904" lon="5.31354">
        <ele>228.6</ele>
        <time>2021-02-03T10:14:48Z</time>
      </trkpt>
      <trkpt lat="43.53908" lon="5.31364">
        <ele>228.8</ele>
        <time>2021-02-03T10:14:56Z</time>
      </trkpt>
      <trkpt lat="43.5391" lon="5.31375">
        <ele>229</ele>
        <time>2021-02-03T10:15:04Z</time>
      </trkpt>
      <trkpt lat="43.53911" lon="5.31387">
        <ele>229.3</ele>
        <time>2021-02-03T10:15:12Z</time>
      </trkpt>
      <trkpt lat="43.53913" lon="5.31399">
        <ele>229.6</ele>
        <time>2021-02-03T10:15:19Z</time>
      </trkpt>
      <trkpt lat="43.53915" lon="5.31411">
        <ele>229.9</ele>
        <time>2021-02-03T10:15:27Z</time>
      </trkpt>
      <trkpt lat="43.53916" lon="5.31423">
        <ele>230.2</ele>
        <time>2021-02-03T10:15:35Z</time>
      </trkpt>
      <trkpt lat="43.53918" lon="5.31433">
        <ele>230.3</ele>
        <time>2021-02-03T10:15:43Z</time>
      </trkpt>
      <trkpt lat="43.53921" lon="5.31444">
        <ele>230.4</ele>
        <time>2021-02-03T10:15:50Z</time>
      </trkpt>
      <trkpt lat="43.53924" lon="5.31454">
        <ele>230.5</ele>
        <time>2021-02-03T10:15:58Z</time>
      </trkpt>
      <trkpt lat="43.53927" lon="5.31465">
        <ele>230.5</ele>
        <time>2021-02-03T10:16:05Z</time>
      </trkpt>
      <trkpt lat="43.53929" lon="5.31476">
        <ele>230.7</ele>
        <time>2021-02-03T10:16:12Z</time>
      </trkpt>
      <trkpt lat="43.5393" lon="5.31488">
        <ele>230.9</ele>
        <time>2021-02-03T10:16:20Z</time>
      </trkpt>
      <trkpt lat="43.5393" lon="5.315">
        <ele>231.2</ele>
        <time>2021-02-03T10:16:28Z</time>
      </trkpt>
      <trkpt lat="43.53931" lon="5.31512">
        <ele>231.1</ele>
        <time>2021-02-03T10:16:36Z</time>
      </trkpt>
      <trkpt lat="43.5393" lon="5.31524">
        <ele>231.1</ele>
        <time>2021-02-03T10:16:44Z</time>
      </trkpt>
      <trkpt lat="43.53932" lon="5.31536">
        <ele>230.9</ele>
        <time>2021-02-03T10:16:53Z</time>
      </trkpt>
      <trkpt lat="43.53935" lon="5.31546">
        <ele>230.3</ele>
        <time>2021-02-03T10:17:01Z</time>
      </trkpt>
      <trkpt lat="43.53941" lon="5.31555">
        <ele>229.5</ele>
        <time>2021-02-03T10:17:09Z</time>
      </trkpt>
      <trkpt lat="43.53945" lon="5.31565">
        <ele>228.7</ele>
        <time>2021-02-03T10:17:18Z</time>
      </trkpt>
      <trkpt lat="43.53944" lon="5.31577">
        <ele>228.6</ele>
        <time>2021-02-03T10:17:27Z</time>
      </trkpt>
      <trkpt lat="43.5394" lon="5.31587">
        <ele>228.8</ele>
        <time>2021-02-03T10:17:35Z</time>
      </trkpt>
      <trkpt lat="43.53935" lon="5.31598">
        <ele>228.8</ele>
        <time>2021-02-03T10:17:44Z</time>
      </trkpt>
      <trkpt lat="43.5393" lon="5.31607">
        <ele>229.1</ele>
        <time>2021-02-03T10:17:53Z</time>
      </trkpt>
      <trkpt lat="43.53923" lon="5.31615">
        <ele>229.9</ele>
        <time>2021-02-03T10:18:01Z</time>
      </trkpt>
      <trkpt lat="43.53915" lon="5.31618">
        <ele>230.9</ele>
        <time>2021-02-03T10:18:08Z</time>
      </trkpt>
      <trkpt lat="43.53908" lon="5.31623">
        <ele>230.7</ele>
        <time>2021-02-03T10:18:15Z</time>
      </trkpt>
      <trkpt lat="43.53901" lon="5.3163">
        <ele>230.5</ele>
        <time>2021-02-03T10:18:22Z</time>
      </trkpt>
      <trkpt lat="43.53895" lon="5.31638">
        <ele>230.3</ele>
        <time>2021-02-03T10:18:29Z</time>
      </trkpt>
      <trkpt lat="43.53889" lon="5.31648">
        <ele>230.1</ele>
        <time>2021-02-03T10:18:37Z</time>
      </trkpt>
      <trkpt lat="43.53884" lon="5.31656">
        <ele>229.9</ele>
        <time>2021-02-03T10:18:44Z</time>
      </trkpt>
      <trkpt lat="43.5388" lon="5.31666">
        <ele>229.8</ele>
        <time>2021-02-03T10:18:51Z</time>
      </trkpt>
      <trkpt lat="43.53876" lon="5.31675">
        <ele>229.2</ele>
        <time>2021-02-03T10:18:58Z</time>
      </trkpt>
      <trkpt lat="43.53871" lon="5.31685">
        <ele>228.6</ele>
        <time>2021-02-03T10:19:06Z</time>
      </trkpt>
      <trkpt lat="43.53868" lon="5.31695">
        <ele>228</ele>
        <time>2021-02-03T10:19:14Z</time>
      </trkpt>
      <trkpt lat="43.53865" lon="5.31706">
        <ele>227.3</ele>
        <time>2021-02-03T10:19:22Z</time>
      </trkpt>
      <trkpt lat="43.53861" lon="5.31716">
        <ele>226.9</ele>
        <time>2021-02-03T10:19:29Z</time>
      </trkpt>
      <trkpt lat="43.53856" lon="5.31724">
        <ele>226.8</ele>
        <time>2021-02-03T10:19:36Z</time>
      </trkpt>
      <trkpt lat="43.5385" lon="5.31732">
        <ele>226.9</ele>
        <time>2021-02-03T10:19:43Z</time>
      </trkpt>
      <trkpt lat="43.53845" lon="5.31742">
        <ele>227</ele>
        <time>2021-02-03T10:19:51Z</time>
      </trkpt>
      <trkpt lat="43.5384" lon="5.3175">
        <ele>227.1</ele>
        <time>2021-02-03T10:19:58Z</time>
      </trkpt>
      <trkpt lat="43.53836" lon="5.3176">
        <ele>226.3</ele>
        <time>2021-02-03T10:20:05Z</time>
      </trkpt>
      <trkpt lat="43.53833" lon="5.31771">
        <ele>225.2</ele>
        <time>2021-02-03T10:20:13Z</time>
      </trkpt>
      <trkpt lat="43.53828" lon="5.31782">
        <ele>223.9</ele>
        <time>2021-02-03T10:20:21Z</time>
      </trkpt>
      <trkpt lat="43.53823" lon="5.3179">
        <ele>222.8</ele>
        <time>2021-02-03T10:20:29Z</time>
      </trkpt>
      <trkpt lat="43.53817" lon="5.31799">
        <ele>221.8</ele>
        <time>2021-02-03T10:20:37Z</time>
      </trkpt>
      <trkpt lat="43.53811" lon="5.31808">
        <ele>220.9</ele>
        <time>2021-02-03T10:20:45Z</time>
      </trkpt>
      <trkpt lat="43.53807" lon="5.31818">
        <ele>220</ele>
        <time>2021-02-03T10:20:53Z</time>
      </trkpt>
      <trkpt lat="43.53801" lon="5.31827">
        <ele>219.2</ele>
        <time>2021-02-03T10:21:01Z</time>
      </trkpt>
      <trkpt lat="43.53797" lon="5.31836">
        <ele>218.4</ele>
        <time>2021-02-03T10:21:09Z</time>
      </trkpt>
      <trkpt lat="43.53793" lon="5.31846">
        <ele>217.4</ele>
        <time>2021-02-03T10:21:17Z</time>
      </trkpt>
      <trkpt lat="43.53788" lon="5.31856">
        <ele>216.5</ele>
        <time>2021-02-03T10:21:25Z</time>
      </trkpt>
      <trkpt lat="43.53784" lon="5.31866">
        <ele>215.7</ele>
        <time>2021-02-03T10:21:33Z</time>
      </trkpt>
      <trkpt lat="43.5378" lon="5.31876">
        <ele>214.9</ele>
        <time>2021-02-03T10:21:41Z</time>
      </trkpt>
      <trkpt lat="43.53776" lon="5.31886">
        <ele>214.1</ele>
        <time>2021-02-03T10:21:50Z</time>
      </trkpt>
      <trkpt lat="43.53771" lon="5.31895">
        <ele>213.7</ele>
        <time>2021-02-03T10:21:59Z</time>
      </trkpt>
      <trkpt lat="43.53765" lon="5.31904">
        <ele>213.4</ele>
        <time>2021-02-03T10:22:07Z</time>
      </trkpt>
      <trkpt lat="43.5376" lon="5.31914">
        <ele>213.1</ele>
        <time>2021-02-03T10:22:15Z</time>
      </trkpt>
      <trkpt lat="43.53755" lon="5.31923">
        <ele>212.7</ele>
        <time>2021-02-03T10:22:23Z</time>
      </trkpt>
      <trkpt lat="43.5375" lon="5.31932">
        <ele>212.1</ele>
        <time>2021-02-03T10:22:31Z</time>
      </trkpt>
      <trkpt lat="43.53744" lon="5.31941">
        <ele>211.3</ele>
        <time>2021-02-03T10:22:40Z</time>
      </trkpt>
      <trkpt lat="43.53737" lon="5.3195">
        <ele>210.4</ele>
        <time>2021-02-03T10:22:48Z</time>
      </trkpt>
      <trkpt lat="43.53731" lon="5.31958">
        <ele>209.7</ele>
        <time>2021-02-03T10:22:56Z</time>
      </trkpt>
      <trkpt lat="43.53725" lon="5.31966">
        <ele>209</ele>
        <time>2021-02-03T10:23:04Z</time>
      </trkpt>
      <trkpt lat="43.53718" lon="5.31973">
        <ele>208.6</ele>
        <time>2021-02-03T10:23:12Z</time>
      </trkpt>
      <trkpt lat="43.53709" lon="5.31975">
        <ele>208.9</ele>
        <time>2021-02-03T10:23:23Z</time>
      </trkpt>
      <trkpt lat="43.53701" lon="5.31976">
        <ele>209.1</ele>
        <time>2021-02-03T10:23:34Z</time>
      </trkpt>
      <trkpt lat="43.53694" lon="5.31983">
        <ele>208.8</ele>
        <time>2021-02-03T10:23:47Z</time>
      </trkpt>
      <trkpt lat="43.53695" lon="5.31994">
        <ele>207.8</ele>
        <time>2021-02-03T10:23:55Z</time>
      </trkpt>
      <trkpt lat="43.53698" lon="5.32005">
        <ele>207.3</ele>
        <time>2021-02-03T10:24:03Z</time>
      </trkpt>
      <trkpt lat="43.537" lon="5.32016">
        <ele>207.5</ele>
        <time>2021-02-03T10:24:12Z</time>
      </trkpt>
      <trkpt lat="43.53703" lon="5.32027">
        <ele>207.8</ele>
        <time>2021-02-03T10:24:22Z</time>
      </trkpt>
      <trkpt lat="43.53709" lon="5.32036">
        <ele>207.8</ele>
        <time>2021-02-03T10:24:34Z</time>
      </trkpt>
      <trkpt lat="43.53715" lon="5.32042">
        <ele>207.7</ele>
        <time>2021-02-03T10:24:42Z</time>
      </trkpt>
      <trkpt lat="43.53723" lon="5.32047">
        <ele>207.5</ele>
        <time>2021-02-03T10:24:51Z</time>
      </trkpt>
      <trkpt lat="43.53731" lon="5.32054">
        <ele>207.4</ele>
        <time>2021-02-03T10:25:00Z</time>
      </trkpt>
      <trkpt lat="43.53738" lon="5.32061">
        <ele>207.4</ele>
        <time>2021-02-03T10:25:12Z</time>
      </trkpt>
      <trkpt lat="43.53744" lon="5.3207">
        <ele>207.6</ele>
        <time>2021-02-03T10:25:26Z</time>
      </trkpt>
      <trkpt lat="43.53748" lon="5.3208">
        <ele>207.9</ele>
        <time>2021-02-03T10:25:38Z</time>
      </trkpt>
      <trkpt lat="43.53754" lon="5.3209">
        <ele>208.3</ele>
        <time>2021-02-03T10:25:51Z</time>
      </trkpt>
      <trkpt lat="43.53759" lon="5.32098">
        <ele>208.6</ele>
        <time>2021-02-03T10:26:01Z</time>
      </trkpt>
      <trkpt lat="43.53766" lon="5.32106">
        <ele>208.9</ele>
        <time>2021-02-03T10:26:11Z</time>
      </trkpt>
      <trkpt lat="43.53772" lon="5.32114">
        <ele>209.1</ele>
        <time>2021-02-03T10:26:20Z</time>
      </trkpt>
      <trkpt lat="43.53779" lon="5.32122">
        <ele>209.4</ele>
        <time>2021-02-03T10:26:30Z</time>
      </trkpt>
      <trkpt lat="43.53786" lon="5.32131">
        <ele>209.8</ele>
        <time>2021-02-03T10:26:40Z</time>
      </trkpt>
      <trkpt lat="43.53792" lon="5.32139">
        <ele>210.2</ele>
        <time>2021-02-03T10:26:49Z</time>
      </trkpt>
      <trkpt lat="43.53798" lon="5.32148">
        <ele>210.6</ele>
        <time>2021-02-03T10:26:57Z</time>
      </trkpt>
      <trkpt lat="43.53804" lon="5.32155">
        <ele>211</ele>
        <time>2021-02-03T10:27:05Z</time>
      </trkpt>
      <trkpt lat="43.53811" lon="5.32163">
        <ele>211.5</ele>
        <time>2021-02-03T10:27:14Z</time>
      </trkpt>
      <trkpt lat="43.53817" lon="5.32172">
        <ele>211.9</ele>
        <time>2021-02-03T10:27:23Z</time>
      </trkpt>
      <trkpt lat="43.53823" lon="5.3218">
        <ele>212.3</ele>
        <time>2021-02-03T10:27:31Z</time>
      </trkpt>
      <trkpt lat="43.5383" lon="5.32188">
        <ele>212.8</ele>
        <time>2021-02-03T10:27:39Z</time>
      </trkpt>
      <trkpt lat="43.53837" lon="5.32195">
        <ele>212.9</ele>
        <time>2021-02-03T10:27:48Z</time>
      </trkpt>
      <trkpt lat="43.53843" lon="5.32203">
        <ele>212.7</ele>
        <time>2021-02-03T10:27:57Z</time>
      </trkpt>
      <trkpt lat="43.53849" lon="5.32211">
        <ele>212.6</ele>
        <time>2021-02-03T10:28:06Z</time>
      </trkpt>
      <trkpt lat="43.53855" lon="5.3222">
        <ele>212.8</ele>
        <time>2021-02-03T10:28:15Z</time>
      </trkpt>
      <trkpt lat="43.53861" lon="5.32227">
        <ele>212.6</ele>
        <time>2021-02-03T10:28:23Z</time>
      </trkpt>
      <trkpt lat="43.53867" lon="5.32235">
        <ele>212.6</ele>
        <time>2021-02-03T10:28:31Z</time>
      </trkpt>
      <trkpt lat="43.53871" lon="5.32244">
        <ele>212.9</ele>
        <time>2021-02-03T10:28:39Z</time>
      </trkpt>
      <trkpt lat="43.53876" lon="5.32254">
        <ele>213.2</ele>
        <time>2021-02-03T10:28:48Z</time>
      </trkpt>
      <trkpt lat="43.53882" lon="5.32263">
        <ele>213</ele>
        <time>2021-02-03T10:28:56Z</time>
      </trkpt>
      <trkpt lat="43.53887" lon="5.32272">
        <ele>213.2</ele>
        <time>2021-02-03T10:29:04Z</time>
      </trkpt>
      <trkpt lat="43.53892" lon="5.32281">
        <ele>213.4</ele>
        <time>2021-02-03T10:29:12Z</time>
      </trkpt>
      <trkpt lat="43.53897" lon="5.3229">
        <ele>213.8</ele>
        <time>2021-02-03T10:29:20Z</time>
      </trkpt>
      <trkpt lat="43.53902" lon="5.32298">
        <ele>214</ele>
        <time>2021-02-03T10:29:28Z</time>
      </trkpt>
      <trkpt lat="43.53908" lon="5.32308">
        <ele>214.5</ele>
        <time>2021-02-03T10:29:36Z</time>
      </trkpt>
      <trkpt lat="43.53913" lon="5.32318">
        <ele>215.2</ele>
        <time>2021-02-03T10:29:45Z</time>
      </trkpt>
      <trkpt lat="43.53917" lon="5.32328">
        <ele>216.3</ele>
        <time>2021-02-03T10:29:53Z</time>
      </trkpt>
      <trkpt lat="43.53921" lon="5.32338">
        <ele>216.2</ele>
        <time>2021-02-03T10:30:02Z</time>
      </trkpt>
      <trkpt lat="43.53926" lon="5.32348">
        <ele>215.9</ele>
        <time>2021-02-03T10:30:11Z</time>
      </trkpt>
      <trkpt lat="43.53929" lon="5.32359">
        <ele>215.7</ele>
        <time>2021-02-03T10:30:19Z</time>
      </trkpt>
      <trkpt lat="43.53932" lon="5.3237">
        <ele>215.8</ele>
        <time>2021-02-03T10:30:27Z</time>
      </trkpt>
      <trkpt lat="43.53935" lon="5.32381">
        <ele>215.8</ele>
        <time>2021-02-03T10:30:35Z</time>
      </trkpt>
      <trkpt lat="43.53938" lon="5.32392">
        <ele>215.6</ele>
        <time>2021-02-03T10:30:43Z</time>
      </trkpt>
      <trkpt lat="43.53942" lon="5.32401">
        <ele>215.2</ele>
        <time>2021-02-03T10:30:51Z</time>
      </trkpt>
      <trkpt lat="43.53945" lon="5.32412">
        <ele>215.2</ele>
        <time>2021-02-03T10:30:59Z</time>
      </trkpt>
      <trkpt lat="43.5395" lon="5.32422">
        <ele>214.4</ele>
        <time>2021-02-03T10:31:08Z</time>
      </trkpt>
      <trkpt lat="43.53955" lon="5.32432">
        <ele>213.6</ele>
        <time>2021-02-03T10:31:17Z</time>
      </trkpt>
      <trkpt lat="43.53959" lon="5.32442">
        <ele>212.9</ele>
        <time>2021-02-03T10:31:25Z</time>
      </trkpt>
      <trkpt lat="43.53961" lon="5.32453">
        <ele>212.5</ele>
        <time>2021-02-03T10:31:33Z</time>
      </trkpt>
      <trkpt lat="43.53963" lon="5.32464">
        <ele>212.3</ele>
        <time>2021-02-03T10:31:41Z</time>
      </trkpt>
      <trkpt lat="43.53965" lon="5.32476">
        <ele>212.2</ele>
        <time>2021-02-03T10:31:49Z</time>
      </trkpt>
      <trkpt lat="43.53966" lon="5.32487">
        <ele>212.2</ele>
        <time>2021-02-03T10:31:57Z</time>
      </trkpt>
      <trkpt lat="43.53967" lon="5.32499">
        <ele>212.1</ele>
        <time>2021-02-03T10:32:05Z</time>
      </trkpt>
      <trkpt lat="43.53967" lon="5.3251">
        <ele>212</ele>
        <time>2021-02-03T10:32:13Z</time>
      </trkpt>
      <trkpt lat="43.53967" lon="5.32522">
        <ele>211.7</ele>
        <time>2021-02-03T10:32:22Z</time>
      </trkpt>
      <trkpt lat="43.53966" lon="5.32534">
        <ele>211.7</ele>
        <time>2021-02-03T10:32:31Z</time>
      </trkpt>
      <trkpt lat="43.53966" lon="5.32546">
        <ele>211.5</ele>
        <time>2021-02-03T10:32:39Z</time>
      </trkpt>
      <trkpt lat="43.53968" lon="5.32557">
        <ele>211</ele>
        <time>2021-02-03T10:32:47Z</time>
      </trkpt>
      <trkpt lat="43.5397" lon="5.32568">
        <ele>210.4</ele>
        <time>2021-02-03T10:32:56Z</time>
      </trkpt>
      <trkpt lat="43.53971" lon="5.32581">
        <ele>210.1</ele>
        <time>2021-02-03T10:33:05Z</time>
      </trkpt>
      <trkpt lat="43.5397" lon="5.32593">
        <ele>209.4</ele>
        <time>2021-02-03T10:33:14Z</time>
      </trkpt>
      <trkpt lat="43.53969" lon="5.32604">
        <ele>208.9</ele>
        <time>2021-02-03T10:33:23Z</time>
      </trkpt>
      <trkpt lat="43.53969" lon="5.32616">
        <ele>208.3</ele>
        <time>2021-02-03T10:33:32Z</time>
      </trkpt>
      <trkpt lat="43.53966" lon="5.32627">
        <ele>208.1</ele>
        <time>2021-02-03T10:33:41Z</time>
      </trkpt>
      <trkpt lat="43.53963" lon="5.32638">
        <ele>208.1</ele>
        <time>2021-02-03T10:33:50Z</time>
      </trkpt>
      <trkpt lat="43.5396" lon="5.32648">
        <ele>208.1</ele>
        <time>2021-02-03T10:33:59Z</time>
      </trkpt>
      <trkpt lat="43.53957" lon="5.32659">
        <ele>208.2</ele>
        <time>2021-02-03T10:34:08Z</time>
      </trkpt>
      <trkpt lat="43.53955" lon="5.32671">
        <ele>208</ele>
        <time>2021-02-03T10:34:18Z</time>
      </trkpt>
      <trkpt lat="43.53952" lon="5.32682">
        <ele>207.5</ele>
        <time>2021-02-03T10:34:29Z</time>
      </trkpt>
      <trkpt lat="43.53951" lon="5.32693">
        <ele>206.7</ele>
        <time>2021-02-03T10:34:39Z</time>
      </trkpt>
      <trkpt lat="43.53951" lon="5.32705">
        <ele>205.6</ele>
        <time>2021-02-03T10:34:50Z</time>
      </trkpt>
      <trkpt lat="43.53951" lon="5.32717">
        <ele>204.4</ele>
        <time>2021-02-03T10:35:00Z</time>
      </trkpt>
      <trkpt lat="43.53951" lon="5.32728">
        <ele>203.1</ele>
        <time>2021-02-03T10:35:09Z</time>
      </trkpt>
      <trkpt lat="43.53952" lon="5.32739">
        <ele>201.8</ele>
        <time>2021-02-03T10:35:17Z</time>
      </trkpt>
      <trkpt lat="43.53952" lon="5.32751">
        <ele>200.6</ele>
        <time>2021-02-03T10:35:25Z</time>
      </trkpt>
      <trkpt lat="43.53954" lon="5.32763">
        <ele>199.5</ele>
        <time>2021-02-03T10:35:34Z</time>
      </trkpt>
      <trkpt lat="43.53954" lon="5.32775">
        <ele>198.7</ele>
        <time>2021-02-03T10:35:43Z</time>
      </trkpt>
      <trkpt lat="43.53953" lon="5.32787">
        <ele>198.3</ele>
        <time>2021-02-03T10:35:52Z</time>
      </trkpt>
      <trkpt lat="43.53952" lon="5.32799">
        <ele>198</ele>
        <time>2021-02-03T10:36:01Z</time>
      </trkpt>
      <trkpt lat="43.5395" lon="5.32811">
        <ele>197.7</ele>
        <time>2021-02-03T10:36:10Z</time>
      </trkpt>
      <trkpt lat="43.53949" lon="5.32823">
        <ele>197.2</ele>
        <time>2021-02-03T10:36:20Z</time>
      </trkpt>
      <trkpt lat="43.53948" lon="5.32834">
        <ele>196.8</ele>
        <time>2021-02-03T10:36:28Z</time>
      </trkpt>
      <trkpt lat="43.53947" lon="5.32846">
        <ele>196</ele>
        <time>2021-02-03T10:36:38Z</time>
      </trkpt>
      <trkpt lat="43.53947" lon="5.32858">
        <ele>195</ele>
        <time>2021-02-03T10:36:47Z</time>
      </trkpt>
      <trkpt lat="43.53948" lon="5.3287">
        <ele>194</ele>
        <time>2021-02-03T10:36:58Z</time>
      </trkpt>
      <trkpt lat="43.53947" lon="5.32881">
        <ele>193.4</ele>
        <time>2021-02-03T10:37:07Z</time>
      </trkpt>
      <trkpt lat="43.53945" lon="5.32893">
        <ele>192.7</ele>
        <time>2021-02-03T10:37:18Z</time>
      </trkpt>
      <trkpt lat="43.53944" lon="5.32904">
        <ele>192.1</ele>
        <time>2021-02-03T10:37:28Z</time>
      </trkpt>
      <trkpt lat="43.53944" lon="5.32916">
        <ele>191.1</ele>
        <time>2021-02-03T10:37:40Z</time>
      </trkpt>
      <trkpt lat="43.53943" lon="5.32927">
        <ele>190.7</ele>
        <time>2021-02-03T10:37:50Z</time>
      </trkpt>
      <trkpt lat="43.53943" lon="5.32939">
        <ele>190.3</ele>
        <time>2021-02-03T10:38:01Z</time>
      </trkpt>
      <trkpt lat="43.53944" lon="5.3295">
        <ele>189.5</ele>
        <time>2021-02-03T10:38:10Z</time>
      </trkpt>
      <trkpt lat="43.53944" lon="5.32962">
        <ele>188.8</ele>
        <time>2021-02-03T10:38:19Z</time>
      </trkpt>
      <trkpt lat="43.53944" lon="5.32974">
        <ele>188.4</ele>
        <time>2021-02-03T10:38:27Z</time>
      </trkpt>
      <trkpt lat="43.53945" lon="5.32986">
        <ele>187.7</ele>
        <time>2021-02-03T10:38:37Z</time>
      </trkpt>
      <trkpt lat="43.53946" lon="5.32997">
        <ele>186.9</ele>
        <time>2021-02-03T10:38:46Z</time>
      </trkpt>
      <trkpt lat="43.53948" lon="5.33008">
        <ele>185.6</ele>
        <time>2021-02-03T10:38:55Z</time>
      </trkpt>
      <trkpt lat="43.5395" lon="5.33019">
        <ele>184.3</ele>
        <time>2021-02-03T10:39:04Z</time>
      </trkpt>
      <trkpt lat="43.53951" lon="5.33031">
        <ele>183.3</ele>
        <time>2021-02-03T10:39:14Z</time>
      </trkpt>
      <trkpt lat="43.5395" lon="5.33042">
        <ele>182.5</ele>
        <time>2021-02-03T10:39:24Z</time>
      </trkpt>
      <trkpt lat="43.5395" lon="5.33054">
        <ele>181.6</ele>
        <time>2021-02-03T10:39:35Z</time>
      </trkpt>
      <trkpt lat="43.5395" lon="5.33067">
        <ele>180.7</ele>
        <time>2021-02-03T10:39:46Z</time>
      </trkpt>
      <trkpt lat="43.53951" lon="5.33078">
        <ele>179.7</ele>
        <time>2021-02-03T10:39:57Z</time>
      </trkpt>
      <trkpt lat="43.5395" lon="5.3309">
        <ele>178.9</ele>
        <time>2021-02-03T10:40:07Z</time>
      </trkpt>
      <trkpt lat="43.53949" lon="5.33101">
        <ele>178.5</ele>
        <time>2021-02-03T10:40:17Z</time>
      </trkpt>
      <trkpt lat="43.53947" lon="5.33113">
        <ele>177.9</ele>
        <time>2021-02-03T10:40:25Z</time>
      </trkpt>
      <trkpt lat="43.53946" lon="5.33125">
        <ele>177.3</ele>
        <time>2021-02-03T10:40:34Z</time>
      </trkpt>
      <trkpt lat="43.53946" lon="5.33136">
        <ele>176.5</ele>
        <time>2021-02-03T10:40:42Z</time>
      </trkpt>
      <trkpt lat="43.53945" lon="5.33148">
        <ele>175.9</ele>
        <time>2021-02-03T10:40:50Z</time>
      </trkpt>
      <trkpt lat="43.53944" lon="5.33159">
        <ele>175.2</ele>
        <time>2021-02-03T10:40:59Z</time>
      </trkpt>
      <trkpt lat="43.53944" lon="5.3317">
        <ele>174.5</ele>
        <time>2021-02-03T10:41:07Z</time>
      </trkpt>
      <trkpt lat="43.53943" lon="5.33182">
        <ele>173.9</ele>
        <time>2021-02-03T10:41:16Z</time>
      </trkpt>
      <trkpt lat="43.53943" lon="5.33194">
        <ele>173.2</ele>
        <time>2021-02-03T10:41:25Z</time>
      </trkpt>
      <trkpt lat="43.53941" lon="5.33206">
        <ele>172.7</ele>
        <time>2021-02-03T10:41:35Z</time>
      </trkpt>
      <trkpt lat="43.5394" lon="5.33218">
        <ele>172.1</ele>
        <time>2021-02-03T10:41:45Z</time>
      </trkpt>
      <trkpt lat="43.5394" lon="5.3323">
        <ele>171.4</ele>
        <time>2021-02-03T10:41:55Z</time>
      </trkpt>
      <trkpt lat="43.5394" lon="5.33242">
        <ele>170.7</ele>
        <time>2021-02-03T10:42:04Z</time>
      </trkpt>
      <trkpt lat="43.5394" lon="5.33254">
        <ele>170</ele>
        <time>2021-02-03T10:42:13Z</time>
      </trkpt>
      <trkpt lat="43.53933" lon="5.33262">
        <ele>170.4</ele>
        <time>2021-02-03T10:42:22Z</time>
      </trkpt>
      <trkpt lat="43.53925" lon="5.33259">
        <ele>171.6</ele>
        <time>2021-02-03T10:42:32Z</time>
      </trkpt>
      <trkpt lat="43.53917" lon="5.33255">
        <ele>172.7</ele>
        <time>2021-02-03T10:42:43Z</time>
      </trkpt>
      <trkpt lat="43.53909" lon="5.33251">
        <ele>173.9</ele>
        <time>2021-02-03T10:42:54Z</time>
      </trkpt>
      <trkpt lat="43.53901" lon="5.33247">
        <ele>175.1</ele>
        <time>2021-02-03T10:43:05Z</time>
      </trkpt>
      <trkpt lat="43.53893" lon="5.33243">
        <ele>176.4</ele>
        <time>2021-02-03T10:43:16Z</time>
      </trkpt>
      <trkpt lat="43.53885" lon="5.33239">
        <ele>177.6</ele>
        <time>2021-02-03T10:43:26Z</time>
      </trkpt>
      <trkpt lat="43.53876" lon="5.33239">
        <ele>178.6</ele>
        <time>2021-02-03T10:43:36Z</time>
      </trkpt>
      <trkpt lat="43.53869" lon="5.33243">
        <ele>179.2</ele>
        <time>2021-02-03T10:43:45Z</time>
      </trkpt>
      <trkpt lat="43.53865" lon="5.33254">
        <ele>178.8</ele>
        <time>2021-02-03T10:43:56Z</time>
      </trkpt>
      <trkpt lat="43.53864" lon="5.33265">
        <ele>178</ele>
        <time>2021-02-03T10:44:05Z</time>
      </trkpt>
      <trkpt lat="43.53865" lon="5.33277">
        <ele>176.9</ele>
        <time>2021-02-03T10:44:13Z</time>
      </trkpt>
      <trkpt lat="43.53866" lon="5.33289">
        <ele>175.8</ele>
        <time>2021-02-03T10:44:22Z</time>
      </trkpt>
      <trkpt lat="43.53867" lon="5.333">
        <ele>174.8</ele>
        <time>2021-02-03T10:44:30Z</time>
      </trkpt>
      <trkpt lat="43.53868" lon="5.33312">
        <ele>173.7</ele>
        <time>2021-02-03T10:44:37Z</time>
      </trkpt>
      <trkpt lat="43.53869" lon="5.33324">
        <ele>172.7</ele>
        <time>2021-02-03T10:44:45Z</time>
      </trkpt>
      <trkpt lat="43.53872" lon="5.33335">
        <ele>171.7</ele>
        <time>2021-02-03T10:45:21Z</time>
      </trkpt>
      <trkpt lat="43.53872" lon="5.33347">
        <ele>172.1</ele>
        <time>2021-02-03T10:45:30Z</time>
      </trkpt>
      <trkpt lat="43.53872" lon="5.33359">
        <ele>172.5</ele>
        <time>2021-02-03T10:45:40Z</time>
      </trkpt>
      <trkpt lat="43.53874" lon="5.33371">
        <ele>172.7</ele>
        <time>2021-02-03T10:45:49Z</time>
      </trkpt>
      <trkpt lat="43.53876" lon="5.33382">
        <ele>172.8</ele>
        <time>2021-02-03T10:45:58Z</time>
      </trkpt>
      <trkpt lat="43.53881" lon="5.33392">
        <ele>172.8</ele>
        <time>2021-02-03T10:46:08Z</time>
      </trkpt>
      <trkpt lat="43.53888" lon="5.33396">
        <ele>172.2</ele>
        <time>2021-02-03T10:46:18Z</time>
      </trkpt>
      <trkpt lat="43.53897" lon="5.33396">
        <ele>171.5</ele>
        <time>2021-02-03T10:46:28Z</time>
      </trkpt>
      <trkpt lat="43.53905" lon="5.33391">
        <ele>170.7</ele>
        <time>2021-02-03T10:46:37Z</time>
      </trkpt>
      <trkpt lat="43.53911" lon="5.33382">
        <ele>170.1</ele>
        <time>2021-02-03T10:46:47Z</time>
      </trkpt>
      <trkpt lat="43.53915" lon="5.33372">
        <ele>169.6</ele>
        <time>2021-02-03T10:46:57Z</time>
      </trkpt>
      <trkpt lat="43.53919" lon="5.33362">
        <ele>169.1</ele>
        <time>2021-02-03T10:47:05Z</time>
      </trkpt>
      <trkpt lat="43.53924" lon="5.33352">
        <ele>168.2</ele>
        <time>2021-02-03T10:47:14Z</time>
      </trkpt>
      <trkpt lat="43.5393" lon="5.33346">
        <ele>167.2</ele>
        <time>2021-02-03T10:47:22Z</time>
      </trkpt>
      <trkpt lat="43.53937" lon="5.33351">
        <ele>166.3</ele>
        <time>2021-02-03T10:47:36Z</time>
      </trkpt>
      <trkpt lat="43.53942" lon="5.3336">
        <ele>165.5</ele>
        <time>2021-02-03T10:47:57Z</time>
      </trkpt>
      <trkpt lat="43.53939" lon="5.33371">
        <ele>166</ele>
        <time>2021-02-03T10:48:07Z</time>
      </trkpt>
      <trkpt lat="43.53936" lon="5.33382">
        <ele>166.5</ele>
        <time>2021-02-03T10:48:16Z</time>
      </trkpt>
      <trkpt lat="43.53935" lon="5.33394">
        <ele>166.7</ele>
        <time>2021-02-03T10:48:24Z</time>
      </trkpt>
      <trkpt lat="43.53936" lon="5.33405">
        <ele>166.5</ele>
        <time>2021-02-03T10:48:35Z</time>
      </trkpt>
      <trkpt lat="43.53938" lon="5.33417">
        <ele>166.1</ele>
        <time>2021-02-03T10:48:45Z</time>
      </trkpt>
      <trkpt lat="43.53942" lon="5.33428">
        <ele>165.3</ele>
        <time>2021-02-03T10:48:55Z</time>
      </trkpt>
      <trkpt lat="43.53942" lon="5.3344">
        <ele>165</ele>
        <time>2021-02-03T10:49:06Z</time>
      </trkpt>
      <trkpt lat="43.5394" lon="5.33451">
        <ele>165.1</ele>
        <time>2021-02-03T10:49:15Z</time>
      </trkpt>
      <trkpt lat="43.53937" lon="5.33462">
        <ele>165.4</ele>
        <time>2021-02-03T10:49:24Z</time>
      </trkpt>
      <trkpt lat="43.53935" lon="5.33473">
        <ele>165.5</ele>
        <time>2021-02-03T10:49:32Z</time>
      </trkpt>
      <trkpt lat="43.53934" lon="5.33485">
        <ele>165.5</ele>
        <time>2021-02-03T10:49:40Z</time>
      </trkpt>
      <trkpt lat="43.53931" lon="5.33496">
        <ele>165.8</ele>
        <time>2021-02-03T10:49:48Z</time>
      </trkpt>
      <trkpt lat="43.53929" lon="5.33506">
        <ele>165.6</ele>
        <time>2021-02-03T10:49:56Z</time>
      </trkpt>
      <trkpt lat="43.5393" lon="5.33517">
        <ele>164.7</ele>
        <time>2021-02-03T10:50:06Z</time>
      </trkpt>
      <trkpt lat="43.53928" lon="5.33529">
        <ele>164.4</ele>
        <time>2021-02-03T10:50:18Z</time>
      </trkpt>
      <trkpt lat="43.53925" lon="5.3354">
        <ele>164.1</ele>
        <time>2021-02-03T10:50:26Z</time>
      </trkpt>
      <trkpt lat="43.53923" lon="5.33551">
        <ele>163.9</ele>
        <time>2021-02-03T10:50:36Z</time>
      </trkpt>
      <trkpt lat="43.53919" lon="5.33563">
        <ele>163.8</ele>
        <time>2021-02-03T10:50:45Z</time>
      </trkpt>
      <trkpt lat="43.53916" lon="5.33573">
        <ele>163.7</ele>
        <time>2021-02-03T10:50:53Z</time>
      </trkpt>
      <trkpt lat="43.53913" lon="5.33584">
        <ele>163.5</ele>
        <time>2021-02-03T10:51:02Z</time>
      </trkpt>
      <trkpt lat="43.5391" lon="5.33595">
        <ele>163.2</ele>
        <time>2021-02-03T10:51:12Z</time>
      </trkpt>
      <trkpt lat="43.53908" lon="5.33606">
        <ele>162.8</ele>
        <time>2021-02-03T10:51:20Z</time>
      </trkpt>
      <trkpt lat="43.53907" lon="5.33617">
        <ele>162.1</ele>
        <time>2021-02-03T10:51:30Z</time>
      </trkpt>
      <trkpt lat="43.53904" lon="5.33628">
        <ele>161.8</ele>
        <time>2021-02-03T10:51:38Z</time>
      </trkpt>
      <trkpt lat="43.53902" lon="5.33639">
        <ele>161.4</ele>
        <time>2021-02-03T10:51:46Z</time>
      </trkpt>
      <trkpt lat="43.53898" lon="5.3365">
        <ele>161.2</ele>
        <time>2021-02-03T10:51:54Z</time>
      </trkpt>
      <trkpt lat="43.53897" lon="5.33662">
        <ele>160.6</ele>
        <time>2021-02-03T10:52:13Z</time>
      </trkpt>
      <trkpt lat="43.53892" lon="5.33672">
        <ele>160.9</ele>
        <time>2021-02-03T10:52:21Z</time>
      </trkpt>
      <trkpt lat="43.53888" lon="5.33682">
        <ele>160.9</ele>
        <time>2021-02-03T10:52:29Z</time>
      </trkpt>
      <trkpt lat="43.53885" lon="5.33692">
        <ele>160.8</ele>
        <time>2021-02-03T10:52:38Z</time>
      </trkpt>
      <trkpt lat="43.5388" lon="5.33703">
        <ele>160.9</ele>
        <time>2021-02-03T10:52:47Z</time>
      </trkpt>
      <trkpt lat="43.53874" lon="5.33711">
        <ele>161.2</ele>
        <time>2021-02-03T10:52:55Z</time>
      </trkpt>
      <trkpt lat="43.5387" lon="5.33722">
        <ele>161.1</ele>
        <time>2021-02-03T10:53:04Z</time>
      </trkpt>
      <trkpt lat="43.53863" lon="5.33727">
        <ele>161.8</ele>
        <time>2021-02-03T10:53:12Z</time>
      </trkpt>
      <trkpt lat="43.53857" lon="5.33735">
        <ele>162</ele>
        <time>2021-02-03T10:53:20Z</time>
      </trkpt>
      <trkpt lat="43.53851" lon="5.33744">
        <ele>162.2</ele>
        <time>2021-02-03T10:53:28Z</time>
      </trkpt>
      <trkpt lat="43.53844" lon="5.3375">
        <ele>162.6</ele>
        <time>2021-02-03T10:53:35Z</time>
      </trkpt>
      <trkpt lat="43.53837" lon="5.33756">
        <ele>163</ele>
        <time>2021-02-03T10:53:42Z</time>
      </trkpt>
      <trkpt lat="43.5383" lon="5.33761">
        <ele>163.2</ele>
        <time>2021-02-03T10:53:49Z</time>
      </trkpt>
      <trkpt lat="43.53822" lon="5.33767">
        <ele>162.8</ele>
        <time>2021-02-03T10:53:57Z</time>
      </trkpt>
      <trkpt lat="43.53814" lon="5.33769">
        <ele>162.8</ele>
        <time>2021-02-03T10:54:05Z</time>
      </trkpt>
      <trkpt lat="43.53807" lon="5.33777">
        <ele>162.3</ele>
        <time>2021-02-03T10:54:18Z</time>
      </trkpt>
      <trkpt lat="43.53799" lon="5.3378">
        <ele>162.2</ele>
        <time>2021-02-03T10:54:55Z</time>
      </trkpt>
      <trkpt lat="43.5379" lon="5.33781">
        <ele>162.2</ele>
        <time>2021-02-03T10:55:08Z</time>
      </trkpt>
      <trkpt lat="43.53782" lon="5.33787">
        <ele>161.9</ele>
        <time>2021-02-03T10:55:18Z</time>
      </trkpt>
      <trkpt lat="43.53774" lon="5.3379">
        <ele>161.7</ele>
        <time>2021-02-03T10:55:27Z</time>
      </trkpt>
      <trkpt lat="43.53765" lon="5.33791">
        <ele>161.8</ele>
        <time>2021-02-03T10:55:35Z</time>
      </trkpt>
      <trkpt lat="43.53756" lon="5.3379">
        <ele>162.1</ele>
        <time>2021-02-03T10:55:43Z</time>
      </trkpt>
      <trkpt lat="43.53748" lon="5.33789">
        <ele>162.2</ele>
        <time>2021-02-03T10:55:51Z</time>
      </trkpt>
      <trkpt lat="43.53739" lon="5.33789">
        <ele>162.2</ele>
        <time>2021-02-03T10:55:59Z</time>
      </trkpt>
      <trkpt lat="43.5373" lon="5.33788">
        <ele>162.2</ele>
        <time>2021-02-03T10:56:07Z</time>
      </trkpt>
      <trkpt lat="43.53721" lon="5.33787">
        <ele>162.3</ele>
        <time>2021-02-03T10:56:15Z</time>
      </trkpt>
      <trkpt lat="43.53713" lon="5.33785">
        <ele>162.4</ele>
        <time>2021-02-03T10:56:23Z</time>
      </trkpt>
      <trkpt lat="43.53704" lon="5.33782">
        <ele>162.6</ele>
        <time>2021-02-03T10:56:31Z</time>
      </trkpt>
      <trkpt lat="43.53696" lon="5.33779">
        <ele>162.8</ele>
        <time>2021-02-03T10:56:38Z</time>
      </trkpt>
      <trkpt lat="43.53688" lon="5.33776">
        <ele>163</ele>
        <time>2021-02-03T10:56:45Z</time>
      </trkpt>
      <trkpt lat="43.5368" lon="5.33773">
        <ele>163.2</ele>
        <time>2021-02-03T10:56:53Z</time>
      </trkpt>
      <trkpt lat="43.53673" lon="5.33767">
        <ele>163.7</ele>
        <time>2021-02-03T10:57:07Z</time>
      </trkpt>
      <trkpt lat="43.53666" lon="5.33762">
        <ele>164</ele>
        <time>2021-02-03T10:57:17Z</time>
      </trkpt>
      <trkpt lat="43.53657" lon="5.33757">
        <ele>164.2</ele>
        <time>2021-02-03T10:57:27Z</time>
      </trkpt>
      <trkpt lat="43.53649" lon="5.33753">
        <ele>164.3</ele>
        <time>2021-02-03T10:57:36Z</time>
      </trkpt>
      <trkpt lat="43.53641" lon="5.33749">
        <ele>164.4</ele>
        <time>2021-02-03T10:57:46Z</time>
      </trkpt>
      <trkpt lat="43.53633" lon="5.33746">
        <ele>164.5</ele>
        <time>2021-02-03T10:57:54Z</time>
      </trkpt>
      <trkpt lat="43.53626" lon="5.33741">
        <ele>164.6</ele>
        <time>2021-02-03T10:58:02Z</time>
      </trkpt>
      <trkpt lat="43.53618" lon="5.33735">
        <ele>164.7</ele>
        <time>2021-02-03T10:58:10Z</time>
      </trkpt>
      <trkpt lat="43.5361" lon="5.3373">
        <ele>164.7</ele>
        <time>2021-02-03T10:58:18Z</time>
      </trkpt>
      <trkpt lat="43.53602" lon="5.33726">
        <ele>164.6</ele>
        <time>2021-02-03T10:58:25Z</time>
      </trkpt>
      <trkpt lat="43.53595" lon="5.33723">
        <ele>164.4</ele>
        <time>2021-02-03T10:58:31Z</time>
      </trkpt>
      <trkpt lat="43.53586" lon="5.33719">
        <ele>164.2</ele>
        <time>2021-02-03T10:58:38Z</time>
      </trkpt>
      <trkpt lat="43.53578" lon="5.33719">
        <ele>164.1</ele>
        <time>2021-02-03T10:58:44Z</time>
      </trkpt>
      <trkpt lat="43.5357" lon="5.3372">
        <ele>164</ele>
        <time>2021-02-03T10:58:51Z</time>
      </trkpt>
      <trkpt lat="43.53562" lon="5.33722">
        <ele>163.8</ele>
        <time>2021-02-03T10:58:59Z</time>
      </trkpt>
      <trkpt lat="43.53554" lon="5.33725">
        <ele>163.7</ele>
        <time>2021-02-03T10:59:11Z</time>
      </trkpt>
      <trkpt lat="43.53546" lon="5.33724">
        <ele>163.6</ele>
        <time>2021-02-03T10:59:18Z</time>
      </trkpt>
      <trkpt lat="43.53538" lon="5.3372">
        <ele>163.7</ele>
        <time>2021-02-03T10:59:25Z</time>
      </trkpt>
      <trkpt lat="43.5353" lon="5.33717">
        <ele>163.8</ele>
        <time>2021-02-03T10:59:32Z</time>
      </trkpt>
      <trkpt lat="43.53522" lon="5.33712">
        <ele>164</ele>
        <time>2021-02-03T10:59:40Z</time>
      </trkpt>
      <trkpt lat="43.53515" lon="5.33706">
        <ele>164.2</ele>
        <time>2021-02-03T10:59:47Z</time>
      </trkpt>
      <trkpt lat="43.53509" lon="5.33698">
        <ele>164.5</ele>
        <time>2021-02-03T10:59:54Z</time>
      </trkpt>
      <trkpt lat="43.53504" lon="5.3369">
        <ele>164.9</ele>
        <time>2021-02-03T11:00:01Z</time>
      </trkpt>
      <trkpt lat="43.53497" lon="5.33686">
        <ele>165</ele>
        <time>2021-02-03T11:00:08Z</time>
      </trkpt>
      <trkpt lat="43.53489" lon="5.33682">
        <ele>165.1</ele>
        <time>2021-02-03T11:00:15Z</time>
      </trkpt>
      <trkpt lat="43.5348" lon="5.33684">
        <ele>164.9</ele>
        <time>2021-02-03T11:00:23Z</time>
      </trkpt>
      <trkpt lat="43.53472" lon="5.33688">
        <ele>164.7</ele>
        <time>2021-02-03T11:00:33Z</time>
      </trkpt>
      <trkpt lat="43.53464" lon="5.33687">
        <ele>164.6</ele>
        <time>2021-02-03T11:00:42Z</time>
      </trkpt>
      <trkpt lat="43.53455" lon="5.33689">
        <ele>164.4</ele>
        <time>2021-02-03T11:00:55Z</time>
      </trkpt>
      <trkpt lat="43.53447" lon="5.33692">
        <ele>164.1</ele>
        <time>2021-02-03T11:01:03Z</time>
      </trkpt>
      <trkpt lat="43.53438" lon="5.33695">
        <ele>163.9</ele>
        <time>2021-02-03T11:01:10Z</time>
      </trkpt>
      <trkpt lat="43.5343" lon="5.33694">
        <ele>163.8</ele>
        <time>2021-02-03T11:01:18Z</time>
      </trkpt>
      <trkpt lat="43.53421" lon="5.33693">
        <ele>163.8</ele>
        <time>2021-02-03T11:01:27Z</time>
      </trkpt>
      <trkpt lat="43.53413" lon="5.33695">
        <ele>163.6</ele>
        <time>2021-02-03T11:01:35Z</time>
      </trkpt>
      <trkpt lat="43.53405" lon="5.33693">
        <ele>163.7</ele>
        <time>2021-02-03T11:01:43Z</time>
      </trkpt>
      <trkpt lat="43.53397" lon="5.33688">
        <ele>163.9</ele>
        <time>2021-02-03T11:01:52Z</time>
      </trkpt>
      <trkpt lat="43.53389" lon="5.33685">
        <ele>164.1</ele>
        <time>2021-02-03T11:02:00Z</time>
      </trkpt>
      <trkpt lat="43.53381" lon="5.33681">
        <ele>164.2</ele>
        <time>2021-02-03T11:02:08Z</time>
      </trkpt>
      <trkpt lat="43.53373" lon="5.33679">
        <ele>164.3</ele>
        <time>2021-02-03T11:02:18Z</time>
      </trkpt>
      <trkpt lat="43.53365" lon="5.33674">
        <ele>164.6</ele>
        <time>2021-02-03T11:02:30Z</time>
      </trkpt>
      <trkpt lat="43.53358" lon="5.33671">
        <ele>164.8</ele>
        <time>2021-02-03T11:02:41Z</time>
      </trkpt>
      <trkpt lat="43.5335" lon="5.33668">
        <ele>164.9</ele>
        <time>2021-02-03T11:02:47Z</time>
      </trkpt>
      <trkpt lat="43.53342" lon="5.33664">
        <ele>165.2</ele>
        <time>2021-02-03T11:02:54Z</time>
      </trkpt>
      <trkpt lat="43.53333" lon="5.3366">
        <ele>165.4</ele>
        <time>2021-02-03T11:03:02Z</time>
      </trkpt>
      <trkpt lat="43.53326" lon="5.33656">
        <ele>165.2</ele>
        <time>2021-02-03T11:03:09Z</time>
      </trkpt>
      <trkpt lat="43.53318" lon="5.33651">
        <ele>165</ele>
        <time>2021-02-03T11:03:18Z</time>
      </trkpt>
      <trkpt lat="43.53311" lon="5.33645">
        <ele>164.9</ele>
        <time>2021-02-03T11:03:25Z</time>
      </trkpt>
      <trkpt lat="43.53304" lon="5.33639">
        <ele>164.9</ele>
        <time>2021-02-03T11:03:32Z</time>
      </trkpt>
      <trkpt lat="43.53296" lon="5.33637">
        <ele>164.5</ele>
        <time>2021-02-03T11:03:39Z</time>
      </trkpt>
      <trkpt lat="43.53289" lon="5.33631">
        <ele>164.4</ele>
        <time>2021-02-03T11:03:47Z</time>
      </trkpt>
      <trkpt lat="43.53282" lon="5.33625">
        <ele>164.4</ele>
        <time>2021-02-03T11:03:54Z</time>
      </trkpt>
      <trkpt lat="43.53275" lon="5.33618">
        <ele>164.4</ele>
        <time>2021-02-03T11:04:02Z</time>
      </trkpt>
      <trkpt lat="43.53268" lon="5.33611">
        <ele>164.4</ele>
        <time>2021-02-03T11:04:09Z</time>
      </trkpt>
      <trkpt lat="43.53262" lon="5.33603">
        <ele>164.6</ele>
        <time>2021-02-03T11:04:16Z</time>
      </trkpt>
      <trkpt lat="43.53257" lon="5.33594">
        <ele>164.8</ele>
        <time>2021-02-03T11:04:23Z</time>
      </trkpt>
      <trkpt lat="43.53253" lon="5.33583">
        <ele>165.2</ele>
        <time>2021-02-03T11:04:31Z</time>
      </trkpt>
      <trkpt lat="43.53249" lon="5.33573">
        <ele>165.2</ele>
        <time>2021-02-03T11:04:38Z</time>
      </trkpt>
      <trkpt lat="43.53247" lon="5.33563">
        <ele>165.2</ele>
        <time>2021-02-03T11:04:45Z</time>
      </trkpt>
      <trkpt lat="43.53244" lon="5.33551">
        <ele>165.2</ele>
        <time>2021-02-03T11:04:53Z</time>
      </trkpt>
      <trkpt lat="43.53241" lon="5.3354">
        <ele>165.1</ele>
        <time>2021-02-03T11:05:01Z</time>
      </trkpt>
      <trkpt lat="43.53237" lon="5.3353">
        <ele>165</ele>
        <time>2021-02-03T11:05:09Z</time>
      </trkpt>
      <trkpt lat="43.53235" lon="5.33519">
        <ele>165</ele>
        <time>2021-02-03T11:05:16Z</time>
      </trkpt>
      <trkpt lat="43.53232" lon="5.33509">
        <ele>165.1</ele>
        <time>2021-02-03T11:05:23Z</time>
      </trkpt>
      <trkpt lat="43.53228" lon="5.335">
        <ele>164.8</ele>
        <time>2021-02-03T11:05:31Z</time>
      </trkpt>
      <trkpt lat="43.53222" lon="5.33491">
        <ele>164.5</ele>
        <time>2021-02-03T11:05:39Z</time>
      </trkpt>
      <trkpt lat="43.53218" lon="5.33481">
        <ele>164.4</ele>
        <time>2021-02-03T11:05:46Z</time>
      </trkpt>
      <trkpt lat="43.53215" lon="5.3347">
        <ele>164.4</ele>
        <time>2021-02-03T11:05:54Z</time>
      </trkpt>
      <trkpt lat="43.53213" lon="5.33459">
        <ele>164.4</ele>
        <time>2021-02-03T11:06:01Z</time>
      </trkpt>
      <trkpt lat="43.53213" lon="5.33447">
        <ele>164.7</ele>
        <time>2021-02-03T11:06:08Z</time>
      </trkpt>
      <trkpt lat="43.53215" lon="5.33436">
        <ele>165.1</ele>
        <time>2021-02-03T11:06:15Z</time>
      </trkpt>
      <trkpt lat="43.53218" lon="5.33425">
        <ele>165.8</ele>
        <time>2021-02-03T11:06:23Z</time>
      </trkpt>
      <trkpt lat="43.53222" lon="5.33414">
        <ele>166.3</ele>
        <time>2021-02-03T11:06:31Z</time>
      </trkpt>
      <trkpt lat="43.53222" lon="5.33402">
        <ele>166.7</ele>
        <time>2021-02-03T11:06:41Z</time>
      </trkpt>
      <trkpt lat="43.5322" lon="5.3339">
        <ele>166.9</ele>
        <time>2021-02-03T11:06:50Z</time>
      </trkpt>
      <trkpt lat="43.53217" lon="5.33379">
        <ele>167</ele>
        <time>2021-02-03T11:07:00Z</time>
      </trkpt>
      <trkpt lat="43.53213" lon="5.33369">
        <ele>167</ele>
        <time>2021-02-03T11:07:09Z</time>
      </trkpt>
      <trkpt lat="43.53209" lon="5.33359">
        <ele>167.1</ele>
        <time>2021-02-03T11:07:17Z</time>
      </trkpt>
      <trkpt lat="43.53207" lon="5.33348">
        <ele>167.4</ele>
        <time>2021-02-03T11:07:25Z</time>
      </trkpt>
      <trkpt lat="43.53205" lon="5.33336">
        <ele>167.7</ele>
        <time>2021-02-03T11:07:36Z</time>
      </trkpt>
      <trkpt lat="43.53202" lon="5.33324">
        <ele>168</ele>
        <time>2021-02-03T11:07:47Z</time>
      </trkpt>
      <trkpt lat="43.53198" lon="5.33313">
        <ele>168.2</ele>
        <time>2021-02-03T11:07:59Z</time>
      </trkpt>
      <trkpt lat="43.53194" lon="5.33304">
        <ele>168.2</ele>
        <time>2021-02-03T11:08:07Z</time>
      </trkpt>
      <trkpt lat="43.53187" lon="5.33298">
        <ele>168</ele>
        <time>2021-02-03T11:08:15Z</time>
      </trkpt>
      <trkpt lat="43.5318" lon="5.33292">
        <ele>167.8</ele>
        <time>2021-02-03T11:08:23Z</time>
      </trkpt>
      <trkpt lat="43.53172" lon="5.33288">
        <ele>167.4</ele>
        <time>2021-02-03T11:08:31Z</time>
      </trkpt>
      <trkpt lat="43.53164" lon="5.33286">
        <ele>167</ele>
        <time>2021-02-03T11:08:38Z</time>
      </trkpt>
      <trkpt lat="43.53156" lon="5.33282">
        <ele>166.8</ele>
        <time>2021-02-03T11:08:46Z</time>
      </trkpt>
      <trkpt lat="43.53147" lon="5.33279">
        <ele>166.5</ele>
        <time>2021-02-03T11:08:54Z</time>
      </trkpt>
      <trkpt lat="43.5314" lon="5.33273">
        <ele>166.4</ele>
        <time>2021-02-03T11:09:02Z</time>
      </trkpt>
      <trkpt lat="43.53135" lon="5.33265">
        <ele>166.2</ele>
        <time>2021-02-03T11:09:10Z</time>
      </trkpt>
      <trkpt lat="43.53129" lon="5.33255">
        <ele>166.1</ele>
        <time>2021-02-03T11:09:18Z</time>
      </trkpt>
      <trkpt lat="43.53124" lon="5.33245">
        <ele>166.2</ele>
        <time>2021-02-03T11:09:26Z</time>
      </trkpt>
      <trkpt lat="43.53119" lon="5.33236">
        <ele>166.4</ele>
        <time>2021-02-03T11:09:34Z</time>
      </trkpt>
      <trkpt lat="43.53112" lon="5.3323">
        <ele>166.4</ele>
        <time>2021-02-03T11:09:43Z</time>
      </trkpt>
      <trkpt lat="43.53105" lon="5.33223">
        <ele>166.3</ele>
        <time>2021-02-03T11:09:51Z</time>
      </trkpt>
      <trkpt lat="43.53097" lon="5.33218">
        <ele>166</ele>
        <time>2021-02-03T11:10:02Z</time>
      </trkpt>
      <trkpt lat="43.53091" lon="5.33211">
        <ele>165.9</ele>
        <time>2021-02-03T11:10:10Z</time>
      </trkpt>
      <trkpt lat="43.53083" lon="5.33204">
        <ele>165.6</ele>
        <time>2021-02-03T11:10:19Z</time>
      </trkpt>
      <trkpt lat="43.53076" lon="5.33199">
        <ele>165.7</ele>
        <time>2021-02-03T11:10:31Z</time>
      </trkpt>
      <trkpt lat="43.53068" lon="5.33192">
        <ele>165.9</ele>
        <time>2021-02-03T11:10:39Z</time>
      </trkpt>
      <trkpt lat="43.53063" lon="5.33184">
        <ele>166.2</ele>
        <time>2021-02-03T11:10:46Z</time>
      </trkpt>
      <trkpt lat="43.53056" lon="5.33177">
        <ele>166.5</ele>
        <time>2021-02-03T11:10:55Z</time>
      </trkpt>
      <trkpt lat="43.53048" lon="5.33171">
        <ele>166.8</ele>
        <time>2021-02-03T11:11:04Z</time>
      </trkpt>
      <trkpt lat="43.53042" lon="5.33164">
        <ele>167.1</ele>
        <time>2021-02-03T11:11:12Z</time>
      </trkpt>
      <trkpt lat="43.53035" lon="5.33157">
        <ele>167.5</ele>
        <time>2021-02-03T11:11:20Z</time>
      </trkpt>
      <trkpt lat="43.53029" lon="5.33151">
        <ele>167.7</ele>
        <time>2021-02-03T11:11:27Z</time>
      </trkpt>
      <trkpt lat="43.53021" lon="5.33144">
        <ele>168</ele>
        <time>2021-02-03T11:11:35Z</time>
      </trkpt>
      <trkpt lat="43.53014" lon="5.33138">
        <ele>168.2</ele>
        <time>2021-02-03T11:11:42Z</time>
      </trkpt>
      <trkpt lat="43.53007" lon="5.33132">
        <ele>168.3</ele>
        <time>2021-02-03T11:11:49Z</time>
      </trkpt>
      <trkpt lat="43.53" lon="5.33126">
        <ele>168.5</ele>
        <time>2021-02-03T11:11:58Z</time>
      </trkpt>
      <trkpt lat="43.52992" lon="5.33122">
        <ele>168.9</ele>
        <time>2021-02-03T11:12:07Z</time>
      </trkpt>
      <trkpt lat="43.52984" lon="5.3312">
        <ele>169.3</ele>
        <time>2021-02-03T11:13:43Z</time>
      </trkpt>
      <trkpt lat="43.52976" lon="5.33116">
        <ele>169.7</ele>
        <time>2021-02-03T11:13:50Z</time>
      </trkpt>
      <trkpt lat="43.52968" lon="5.33111">
        <ele>170.2</ele>
        <time>2021-02-03T11:13:57Z</time>
      </trkpt>
      <trkpt lat="43.52959" lon="5.33108">
        <ele>170.6</ele>
        <time>2021-02-03T11:14:05Z</time>
      </trkpt>
      <trkpt lat="43.52951" lon="5.33103">
        <ele>171</ele>
        <time>2021-02-03T11:14:31Z</time>
      </trkpt>
      <trkpt lat="43.52943" lon="5.33098">
        <ele>171.5</ele>
        <time>2021-02-03T11:16:27Z</time>
      </trkpt>
      <trkpt lat="43.52936" lon="5.33091">
        <ele>172</ele>
        <time>2021-02-03T11:16:37Z</time>
      </trkpt>
      <trkpt lat="43.52929" lon="5.33084">
        <ele>172.6</ele>
        <time>2021-02-03T11:16:48Z</time>
      </trkpt>
      <trkpt lat="43.5292" lon="5.33084">
        <ele>172.8</ele>
        <time>2021-02-03T11:17:00Z</time>
      </trkpt>
      <trkpt lat="43.52914" lon="5.33077">
        <ele>172.7</ele>
        <time>2021-02-03T11:17:12Z</time>
      </trkpt>
      <trkpt lat="43.52913" lon="5.33065">
        <ele>172.6</ele>
        <time>2021-02-03T11:17:24Z</time>
      </trkpt>
      <trkpt lat="43.52905" lon="5.33063">
        <ele>171.7</ele>
        <time>2021-02-03T11:17:43Z</time>
      </trkpt>
      <trkpt lat="43.52898" lon="5.33055">
        <ele>170.9</ele>
        <time>2021-02-03T11:17:53Z</time>
      </trkpt>
      <trkpt lat="43.52892" lon="5.33048">
        <ele>170.2</ele>
        <time>2021-02-03T11:18:02Z</time>
      </trkpt>
      <trkpt lat="43.52886" lon="5.3304">
        <ele>169.5</ele>
        <time>2021-02-03T11:18:11Z</time>
      </trkpt>
      <trkpt lat="43.52879" lon="5.33032">
        <ele>168.7</ele>
        <time>2021-02-03T11:18:21Z</time>
      </trkpt>
      <trkpt lat="43.52874" lon="5.33022">
        <ele>168</ele>
        <time>2021-02-03T11:18:31Z</time>
      </trkpt>
      <trkpt lat="43.52871" lon="5.33012">
        <ele>167.6</ele>
        <time>2021-02-03T11:18:39Z</time>
      </trkpt>
      <trkpt lat="43.5287" lon="5.33001">
        <ele>167.4</ele>
        <time>2021-02-03T11:18:48Z</time>
      </trkpt>
      <trkpt lat="43.5287" lon="5.32989">
        <ele>167.6</ele>
        <time>2021-02-03T11:18:58Z</time>
      </trkpt>
      <trkpt lat="43.5287" lon="5.32977">
        <ele>167.8</ele>
        <time>2021-02-03T11:19:08Z</time>
      </trkpt>
      <trkpt lat="43.52871" lon="5.32966">
        <ele>168.1</ele>
        <time>2021-02-03T11:19:17Z</time>
      </trkpt>
      <trkpt lat="43.52871" lon="5.32954">
        <ele>168.3</ele>
        <time>2021-02-03T11:19:26Z</time>
      </trkpt>
      <trkpt lat="43.52871" lon="5.32941">
        <ele>168.4</ele>
        <time>2021-02-03T11:19:36Z</time>
      </trkpt>
      <trkpt lat="43.52872" lon="5.32929">
        <ele>168.7</ele>
        <time>2021-02-03T11:19:47Z</time>
      </trkpt>
      <trkpt lat="43.52872" lon="5.32917">
        <ele>168.9</ele>
        <time>2021-02-03T11:19:58Z</time>
      </trkpt>
      <trkpt lat="43.52872" lon="5.32905">
        <ele>168.4</ele>
        <time>2021-02-03T11:20:08Z</time>
      </trkpt>
      <trkpt lat="43.5287" lon="5.32894">
        <ele>167.9</ele>
        <time>2021-02-03T11:20:17Z</time>
      </trkpt>
      <trkpt lat="43.52869" lon="5.32882">
        <ele>167.5</ele>
        <time>2021-02-03T11:20:26Z</time>
      </trkpt>
      <trkpt lat="43.52869" lon="5.3287">
        <ele>167</ele>
        <time>2021-02-03T11:20:37Z</time>
      </trkpt>
      <trkpt lat="43.5287" lon="5.32858">
        <ele>166.6</ele>
        <time>2021-02-03T11:20:48Z</time>
      </trkpt>
      <trkpt lat="43.52873" lon="5.32847">
        <ele>166.4</ele>
        <time>2021-02-03T11:20:58Z</time>
      </trkpt>
      <trkpt lat="43.52876" lon="5.32836">
        <ele>166.1</ele>
        <time>2021-02-03T11:21:08Z</time>
      </trkpt>
      <trkpt lat="43.52869" lon="5.3283">
        <ele>165.6</ele>
        <time>2021-02-03T11:21:18Z</time>
      </trkpt>
      <trkpt lat="43.5286" lon="5.32829">
        <ele>165.2</ele>
        <time>2021-02-03T11:21:26Z</time>
      </trkpt>
      <trkpt lat="43.52852" lon="5.32827">
        <ele>164.7</ele>
        <time>2021-02-03T11:21:35Z</time>
      </trkpt>
      <trkpt lat="43.52851" lon="5.32815">
        <ele>164.2</ele>
        <time>2021-02-03T11:21:46Z</time>
      </trkpt>
      <trkpt lat="43.52849" lon="5.32804">
        <ele>163.8</ele>
        <time>2021-02-03T11:21:55Z</time>
      </trkpt>
      <trkpt lat="43.5285" lon="5.32792">
        <ele>163.4</ele>
        <time>2021-02-03T11:22:04Z</time>
      </trkpt>
      <trkpt lat="43.52852" lon="5.32781">
        <ele>163.2</ele>
        <time>2021-02-03T11:22:12Z</time>
      </trkpt>
      <trkpt lat="43.52856" lon="5.32772">
        <ele>163.3</ele>
        <time>2021-02-03T11:22:19Z</time>
      </trkpt>
      <trkpt lat="43.5286" lon="5.32763">
        <ele>163.5</ele>
        <time>2021-02-03T11:22:25Z</time>
      </trkpt>
      <trkpt lat="43.52862" lon="5.32751">
        <ele>163.5</ele>
        <time>2021-02-03T11:22:34Z</time>
      </trkpt>
      <trkpt lat="43.52865" lon="5.3274">
        <ele>164.3</ele>
        <time>2021-02-03T11:22:41Z</time>
      </trkpt>
      <trkpt lat="43.52864" lon="5.32728">
        <ele>164.9</ele>
        <time>2021-02-03T11:22:50Z</time>
      </trkpt>
      <trkpt lat="43.52859" lon="5.32719">
        <ele>164.8</ele>
        <time>2021-02-03T11:22:58Z</time>
      </trkpt>
      <trkpt lat="43.52853" lon="5.32713">
        <ele>164.6</ele>
        <time>2021-02-03T11:23:05Z</time>
      </trkpt>
      <trkpt lat="43.52846" lon="5.32708">
        <ele>164.2</ele>
        <time>2021-02-03T11:23:12Z</time>
      </trkpt>
      <trkpt lat="43.52837" lon="5.32707">
        <ele>163.5</ele>
        <time>2021-02-03T11:23:20Z</time>
      </trkpt>
      <trkpt lat="43.5283" lon="5.32712">
        <ele>162.4</ele>
        <time>2021-02-03T11:23:31Z</time>
      </trkpt>
      <trkpt lat="43.52822" lon="5.32708">
        <ele>162.1</ele>
        <time>2021-02-03T11:23:39Z</time>
      </trkpt>
      <trkpt lat="43.52815" lon="5.32701">
        <ele>161.9</ele>
        <time>2021-02-03T11:23:46Z</time>
      </trkpt>
      <trkpt lat="43.52809" lon="5.32693">
        <ele>161.8</ele>
        <time>2021-02-03T11:23:53Z</time>
      </trkpt>
      <trkpt lat="43.52803" lon="5.32684">
        <ele>162</ele>
        <time>2021-02-03T11:24:01Z</time>
      </trkpt>
      <trkpt lat="43.52798" lon="5.32674">
        <ele>162.1</ele>
        <time>2021-02-03T11:24:09Z</time>
      </trkpt>
      <trkpt lat="43.5279" lon="5.32669">
        <ele>161.6</ele>
        <time>2021-02-03T11:24:18Z</time>
      </trkpt>
      <trkpt lat="43.52781" lon="5.32667">
        <ele>161</ele>
        <time>2021-02-03T11:24:25Z</time>
      </trkpt>
      <trkpt lat="43.52774" lon="5.32663">
        <ele>160.4</ele>
        <time>2021-02-03T11:24:33Z</time>
      </trkpt>
      <trkpt lat="43.52766" lon="5.32658">
        <ele>159.9</ele>
        <time>2021-02-03T11:24:41Z</time>
      </trkpt>
      <trkpt lat="43.52761" lon="5.32649">
        <ele>159.8</ele>
        <time>2021-02-03T11:24:48Z</time>
      </trkpt>
      <trkpt lat="43.52758" lon="5.32639">
        <ele>159.8</ele>
        <time>2021-02-03T11:24:56Z</time>
      </trkpt>
      <trkpt lat="43.52756" lon="5.32627">
        <ele>160.1</ele>
        <time>2021-02-03T11:25:04Z</time>
      </trkpt>
      <trkpt lat="43.52755" lon="5.32615">
        <ele>160.4</ele>
        <time>2021-02-03T11:25:12Z</time>
      </trkpt>
      <trkpt lat="43.52754" lon="5.32603">
        <ele>160.7</ele>
        <time>2021-02-03T11:25:21Z</time>
      </trkpt>
      <trkpt lat="43.52754" lon="5.32592">
        <ele>161.2</ele>
        <time>2021-02-03T11:25:28Z</time>
      </trkpt>
      <trkpt lat="43.52752" lon="5.32581">
        <ele>161.3</ele>
        <time>2021-02-03T11:25:35Z</time>
      </trkpt>
      <trkpt lat="43.52753" lon="5.32569">
        <ele>161.3</ele>
        <time>2021-02-03T11:25:43Z</time>
      </trkpt>
      <trkpt lat="43.52751" lon="5.32558">
        <ele>161.2</ele>
        <time>2021-02-03T11:25:50Z</time>
      </trkpt>
      <trkpt lat="43.5275" lon="5.32546">
        <ele>161</ele>
        <time>2021-02-03T11:25:58Z</time>
      </trkpt>
      <trkpt lat="43.52751" lon="5.32535">
        <ele>161.1</ele>
        <time>2021-02-03T11:26:06Z</time>
      </trkpt>
      <trkpt lat="43.52752" lon="5.32523">
        <ele>161.2</ele>
        <time>2021-02-03T11:26:13Z</time>
      </trkpt>
      <trkpt lat="43.52752" lon="5.32511">
        <ele>161.3</ele>
        <time>2021-02-03T11:26:21Z</time>
      </trkpt>
      <trkpt lat="43.52751" lon="5.32499">
        <ele>161.1</ele>
        <time>2021-02-03T11:26:30Z</time>
      </trkpt>
      <trkpt lat="43.52749" lon="5.32487">
        <ele>161.4</ele>
        <time>2021-02-03T11:26:38Z</time>
      </trkpt>
      <trkpt lat="43.52747" lon="5.32476">
        <ele>161.5</ele>
        <time>2021-02-03T11:26:47Z</time>
      </trkpt>
      <trkpt lat="43.52742" lon="5.32466">
        <ele>161.6</ele>
        <time>2021-02-03T11:26:54Z</time>
      </trkpt>
      <trkpt lat="43.52737" lon="5.32457">
        <ele>161.6</ele>
        <time>2021-02-03T11:27:01Z</time>
      </trkpt>
      <trkpt lat="43.52731" lon="5.32448">
        <ele>161.6</ele>
        <time>2021-02-03T11:27:09Z</time>
      </trkpt>
      <trkpt lat="43.52727" lon="5.32437">
        <ele>161.8</ele>
        <time>2021-02-03T11:27:16Z</time>
      </trkpt>
      <trkpt lat="43.52723" lon="5.32428">
        <ele>162.1</ele>
        <time>2021-02-03T11:27:23Z</time>
      </trkpt>
      <trkpt lat="43.52719" lon="5.32418">
        <ele>162.4</ele>
        <time>2021-02-03T11:27:30Z</time>
      </trkpt>
      <trkpt lat="43.52715" lon="5.32408">
        <ele>162.7</ele>
        <time>2021-02-03T11:27:39Z</time>
      </trkpt>
      <trkpt lat="43.5271" lon="5.32398">
        <ele>162.9</ele>
        <time>2021-02-03T11:27:47Z</time>
      </trkpt>
      <trkpt lat="43.52705" lon="5.32388">
        <ele>163.1</ele>
        <time>2021-02-03T11:27:55Z</time>
      </trkpt>
      <trkpt lat="43.527" lon="5.32378">
        <ele>163.4</ele>
        <time>2021-02-03T11:28:03Z</time>
      </trkpt>
      <trkpt lat="43.52695" lon="5.32369">
        <ele>163.6</ele>
        <time>2021-02-03T11:28:11Z</time>
      </trkpt>
      <trkpt lat="43.52691" lon="5.32359">
        <ele>164</ele>
        <time>2021-02-03T11:28:17Z</time>
      </trkpt>
      <trkpt lat="43.52686" lon="5.32352">
        <ele>164.3</ele>
        <time>2021-02-03T11:28:23Z</time>
      </trkpt>
      <trkpt lat="43.52681" lon="5.32344">
        <ele>164.6</ele>
        <time>2021-02-03T11:28:30Z</time>
      </trkpt>
      <trkpt lat="43.52676" lon="5.32334">
        <ele>165.1</ele>
        <time>2021-02-03T11:28:38Z</time>
      </trkpt>
      <trkpt lat="43.52671" lon="5.32325">
        <ele>165.3</ele>
        <time>2021-02-03T11:28:46Z</time>
      </trkpt>
      <trkpt lat="43.52666" lon="5.32315">
        <ele>165.4</ele>
        <time>2021-02-03T11:28:55Z</time>
      </trkpt>
      <trkpt lat="43.52662" lon="5.32305">
        <ele>165.4</ele>
        <time>2021-02-03T11:29:02Z</time>
      </trkpt>
      <trkpt lat="43.52657" lon="5.32296">
        <ele>165.3</ele>
        <time>2021-02-03T11:29:11Z</time>
      </trkpt>
      <trkpt lat="43.52652" lon="5.32286">
        <ele>165.4</ele>
        <time>2021-02-03T11:29:20Z</time>
      </trkpt>
      <trkpt lat="43.52646" lon="5.32277">
        <ele>165.5</ele>
        <time>2021-02-03T11:29:27Z</time>
      </trkpt>
      <trkpt lat="43.52641" lon="5.32268">
        <ele>165.6</ele>
        <time>2021-02-03T11:29:36Z</time>
      </trkpt>
      <trkpt lat="43.52639" lon="5.32256">
        <ele>166.1</ele>
        <time>2021-02-03T11:29:44Z</time>
      </trkpt>
      <trkpt lat="43.52634" lon="5.32247">
        <ele>166.6</ele>
        <time>2021-02-03T11:29:53Z</time>
      </trkpt>
      <trkpt lat="43.52629" lon="5.32237">
        <ele>167.4</ele>
        <time>2021-02-03T11:30:02Z</time>
      </trkpt>
      <trkpt lat="43.52622" lon="5.3223">
        <ele>167.8</ele>
        <time>2021-02-03T11:30:10Z</time>
      </trkpt>
      <trkpt lat="43.52614" lon="5.32226">
        <ele>168.1</ele>
        <time>2021-02-03T11:30:17Z</time>
      </trkpt>
      <trkpt lat="43.52606" lon="5.32223">
        <ele>168.1</ele>
        <time>2021-02-03T11:30:25Z</time>
      </trkpt>
      <trkpt lat="43.52598" lon="5.32223">
        <ele>168</ele>
        <time>2021-02-03T11:30:33Z</time>
      </trkpt>
      <trkpt lat="43.52589" lon="5.32224">
        <ele>167.7</ele>
        <time>2021-02-03T11:30:41Z</time>
      </trkpt>
      <trkpt lat="43.52581" lon="5.32225">
        <ele>167.4</ele>
        <time>2021-02-03T11:30:48Z</time>
      </trkpt>
      <trkpt lat="43.52572" lon="5.32226">
        <ele>167.1</ele>
        <time>2021-02-03T11:30:56Z</time>
      </trkpt>
      <trkpt lat="43.52564" lon="5.32228">
        <ele>166.7</ele>
        <time>2021-02-03T11:31:04Z</time>
      </trkpt>
      <trkpt lat="43.52556" lon="5.3223">
        <ele>166.4</ele>
        <time>2021-02-03T11:31:12Z</time>
      </trkpt>
      <trkpt lat="43.52547" lon="5.32232">
        <ele>166</ele>
        <time>2021-02-03T11:31:21Z</time>
      </trkpt>
      <trkpt lat="43.52538" lon="5.32232">
        <ele>165.8</ele>
        <time>2021-02-03T11:31:29Z</time>
      </trkpt>
      <trkpt lat="43.5253" lon="5.32234">
        <ele>165.5</ele>
        <time>2021-02-03T11:31:36Z</time>
      </trkpt>
      <trkpt lat="43.52521" lon="5.32232">
        <ele>165.5</ele>
        <time>2021-02-03T11:31:44Z</time>
      </trkpt>
      <trkpt lat="43.52514" lon="5.32228">
        <ele>165.6</ele>
        <time>2021-02-03T11:31:52Z</time>
      </trkpt>
      <trkpt lat="43.52506" lon="5.32224">
        <ele>165.7</ele>
        <time>2021-02-03T11:32:00Z</time>
      </trkpt>
      <trkpt lat="43.52498" lon="5.3222">
        <ele>165.6</ele>
        <time>2021-02-03T11:32:09Z</time>
      </trkpt>
      <trkpt lat="43.5249" lon="5.32216">
        <ele>165.2</ele>
        <time>2021-02-03T11:32:17Z</time>
      </trkpt>
      <trkpt lat="43.52483" lon="5.32211">
        <ele>164.9</ele>
        <time>2021-02-03T11:32:25Z</time>
      </trkpt>
      <trkpt lat="43.52475" lon="5.32206">
        <ele>164.5</ele>
        <time>2021-02-03T11:32:33Z</time>
      </trkpt>
      <trkpt lat="43.52467" lon="5.32202">
        <ele>164</ele>
        <time>2021-02-03T11:32:41Z</time>
      </trkpt>
      <trkpt lat="43.52459" lon="5.32198">
        <ele>163.6</ele>
        <time>2021-02-03T11:32:48Z</time>
      </trkpt>
      <trkpt lat="43.52451" lon="5.32193">
        <ele>163.1</ele>
        <time>2021-02-03T11:32:56Z</time>
      </trkpt>
      <trkpt lat="43.52444" lon="5.32187">
        <ele>162.8</ele>
        <time>2021-02-03T11:33:02Z</time>
      </trkpt>
      <trkpt lat="43.5244" lon="5.32177">
        <ele>162.8</ele>
        <time>2021-02-03T11:33:11Z</time>
      </trkpt>
      <trkpt lat="43.52435" lon="5.32169">
        <ele>162.7</ele>
        <time>2021-02-03T11:33:19Z</time>
      </trkpt>
      <trkpt lat="43.52431" lon="5.32159">
        <ele>162.7</ele>
        <time>2021-02-03T11:33:26Z</time>
      </trkpt>
      <trkpt lat="43.52429" lon="5.32148">
        <ele>163</ele>
        <time>2021-02-03T11:33:34Z</time>
      </trkpt>
      <trkpt lat="43.52426" lon="5.32137">
        <ele>163.3</ele>
        <time>2021-02-03T11:33:42Z</time>
      </trkpt>
      <trkpt lat="43.52426" lon="5.32125">
        <ele>163.9</ele>
        <time>2021-02-03T11:33:50Z</time>
      </trkpt>
      <trkpt lat="43.52428" lon="5.32114">
        <ele>164.5</ele>
        <time>2021-02-03T11:33:58Z</time>
      </trkpt>
      <trkpt lat="43.5243" lon="5.32103">
        <ele>165.2</ele>
        <time>2021-02-03T11:34:06Z</time>
      </trkpt>
      <trkpt lat="43.52432" lon="5.32092">
        <ele>165.9</ele>
        <time>2021-02-03T11:34:15Z</time>
      </trkpt>
      <trkpt lat="43.52432" lon="5.32081">
        <ele>166.3</ele>
        <time>2021-02-03T11:34:23Z</time>
      </trkpt>
      <trkpt lat="43.52433" lon="5.32069">
        <ele>166.1</ele>
        <time>2021-02-03T11:34:31Z</time>
      </trkpt>
      <trkpt lat="43.52432" lon="5.32057">
        <ele>165.8</ele>
        <time>2021-02-03T11:34:39Z</time>
      </trkpt>
      <trkpt lat="43.52434" lon="5.32046">
        <ele>165.7</ele>
        <time>2021-02-03T11:34:48Z</time>
      </trkpt>
      <trkpt lat="43.52436" lon="5.32034">
        <ele>165.7</ele>
        <time>2021-02-03T11:34:58Z</time>
      </trkpt>
      <trkpt lat="43.52439" lon="5.32022">
        <ele>165.7</ele>
        <time>2021-02-03T11:35:07Z</time>
      </trkpt>
      <trkpt lat="43.52441" lon="5.32011">
        <ele>165.8</ele>
        <time>2021-02-03T11:35:16Z</time>
      </trkpt>
      <trkpt lat="43.52444" lon="5.32">
        <ele>166</ele>
        <time>2021-02-03T11:35:26Z</time>
      </trkpt>
      <trkpt lat="43.52443" lon="5.31988">
        <ele>166.1</ele>
        <time>2021-02-03T11:35:35Z</time>
      </trkpt>
      <trkpt lat="43.52446" lon="5.31978">
        <ele>166.6</ele>
        <time>2021-02-03T11:35:43Z</time>
      </trkpt>
      <trkpt lat="43.5245" lon="5.31967">
        <ele>167.2</ele>
        <time>2021-02-03T11:35:53Z</time>
      </trkpt>
      <trkpt lat="43.52452" lon="5.31956">
        <ele>167.6</ele>
        <time>2021-02-03T11:36:03Z</time>
      </trkpt>
      <trkpt lat="43.52453" lon="5.31944">
        <ele>168</ele>
        <time>2021-02-03T11:36:11Z</time>
      </trkpt>
      <trkpt lat="43.52452" lon="5.31934">
        <ele>168.1</ele>
        <time>2021-02-03T11:36:18Z</time>
      </trkpt>
      <trkpt lat="43.52451" lon="5.31922">
        <ele>168.2</ele>
        <time>2021-02-03T11:36:26Z</time>
      </trkpt>
      <trkpt lat="43.52447" lon="5.31912">
        <ele>167.9</ele>
        <time>2021-02-03T11:36:34Z</time>
      </trkpt>
      <trkpt lat="43.52441" lon="5.31903">
        <ele>167.4</ele>
        <time>2021-02-03T11:36:43Z</time>
      </trkpt>
      <trkpt lat="43.52433" lon="5.31896">
        <ele>166.8</ele>
        <time>2021-02-03T11:36:51Z</time>
      </trkpt>
      <trkpt lat="43.52425" lon="5.31893">
        <ele>166.1</ele>
        <time>2021-02-03T11:36:59Z</time>
      </trkpt>
      <trkpt lat="43.52417" lon="5.31894">
        <ele>165.3</ele>
        <time>2021-02-03T11:37:06Z</time>
      </trkpt>
      <trkpt lat="43.52409" lon="5.31891">
        <ele>164.7</ele>
        <time>2021-02-03T11:37:16Z</time>
      </trkpt>
      <trkpt lat="43.52402" lon="5.31884">
        <ele>164.2</ele>
        <time>2021-02-03T11:37:25Z</time>
      </trkpt>
      <trkpt lat="43.52398" lon="5.31874">
        <ele>164</ele>
        <time>2021-02-03T11:37:34Z</time>
      </trkpt>
      <trkpt lat="43.52396" lon="5.31862">
        <ele>164.1</ele>
        <time>2021-02-03T11:37:42Z</time>
      </trkpt>
      <trkpt lat="43.52398" lon="5.31851">
        <ele>164.4</ele>
        <time>2021-02-03T11:37:50Z</time>
      </trkpt>
      <trkpt lat="43.52401" lon="5.3184">
        <ele>164.8</ele>
        <time>2021-02-03T11:37:57Z</time>
      </trkpt>
      <trkpt lat="43.52404" lon="5.31829">
        <ele>165</ele>
        <time>2021-02-03T11:38:05Z</time>
      </trkpt>
      <trkpt lat="43.52403" lon="5.31818">
        <ele>164.7</ele>
        <time>2021-02-03T11:38:15Z</time>
      </trkpt>
      <trkpt lat="43.52398" lon="5.31808">
        <ele>164.2</ele>
        <time>2021-02-03T11:38:25Z</time>
      </trkpt>
      <trkpt lat="43.52392" lon="5.31798">
        <ele>163.8</ele>
        <time>2021-02-03T11:38:34Z</time>
      </trkpt>
      <trkpt lat="43.52387" lon="5.3179">
        <ele>163.6</ele>
        <time>2021-02-03T11:38:43Z</time>
      </trkpt>
      <trkpt lat="43.52382" lon="5.31781">
        <ele>163.4</ele>
        <time>2021-02-03T11:38:51Z</time>
      </trkpt>
      <trkpt lat="43.52377" lon="5.31771">
        <ele>163.4</ele>
        <time>2021-02-03T11:38:58Z</time>
      </trkpt>
      <trkpt lat="43.52372" lon="5.31761">
        <ele>163.4</ele>
        <time>2021-02-03T11:39:07Z</time>
      </trkpt>
      <trkpt lat="43.52367" lon="5.31752">
        <ele>163.6</ele>
        <time>2021-02-03T11:39:15Z</time>
      </trkpt>
      <trkpt lat="43.52362" lon="5.31742">
        <ele>164.5</ele>
        <time>2021-02-03T11:39:24Z</time>
      </trkpt>
      <trkpt lat="43.52357" lon="5.31734">
        <ele>165.4</ele>
        <time>2021-02-03T11:39:32Z</time>
      </trkpt>
      <trkpt lat="43.52352" lon="5.31725">
        <ele>166.5</ele>
        <time>2021-02-03T11:39:40Z</time>
      </trkpt>
      <trkpt lat="43.52351" lon="5.31712">
        <ele>167.8</ele>
        <time>2021-02-03T11:39:51Z</time>
      </trkpt>
      <trkpt lat="43.52343" lon="5.31712">
        <ele>167.9</ele>
        <time>2021-02-03T11:40:04Z</time>
      </trkpt>
      <trkpt lat="43.52335" lon="5.3172">
        <ele>167.3</ele>
        <time>2021-02-03T11:40:34Z</time>
      </trkpt>
      <trkpt lat="43.52338" lon="5.31731">
        <ele>166</ele>
        <time>2021-02-03T11:40:59Z</time>
      </trkpt>
      <trkpt lat="43.52329" lon="5.31734">
        <ele>165.6</ele>
        <time>2021-02-03T11:41:10Z</time>
      </trkpt>
      <trkpt lat="43.52337" lon="5.31729">
        <ele>166.2</ele>
        <time>2021-02-03T12:27:51Z</time>
      </trkpt>
      <trkpt lat="43.52334" lon="5.31719">
        <ele>167.4</ele>
        <time>2021-02-03T12:28:45Z</time>
      </trkpt>
      <trkpt lat="43.52332" lon="5.31707">
        <ele>168.6</ele>
        <time>2021-02-03T12:29:01Z</time>
      </trkpt>
      <trkpt lat="43.52334" lon="5.31696">
        <ele>169.9</ele>
        <time>2021-02-03T12:29:25Z</time>
      </trkpt>
      <trkpt lat="43.52333" lon="5.31684">
        <ele>171.1</ele>
        <time>2021-02-03T12:29:40Z</time>
      </trkpt>
      <trkpt lat="43.52331" lon="5.31673">
        <ele>172.2</ele>
        <time>2021-02-03T12:29:51Z</time>
      </trkpt>
      <trkpt lat="43.52328" lon="5.31662">
        <ele>173.2</ele>
        <time>2021-02-03T12:30:01Z</time>
      </trkpt>
      <trkpt lat="43.52327" lon="5.3165">
        <ele>174.5</ele>
        <time>2021-02-03T12:30:13Z</time>
      </trkpt>
      <trkpt lat="43.52326" lon="5.31639">
        <ele>175.7</ele>
        <time>2021-02-03T12:30:25Z</time>
      </trkpt>
      <trkpt lat="43.52319" lon="5.31631">
        <ele>176.1</ele>
        <time>2021-02-03T12:30:35Z</time>
      </trkpt>
      <trkpt lat="43.52311" lon="5.31627">
        <ele>176</ele>
        <time>2021-02-03T12:30:49Z</time>
      </trkpt>
      <trkpt lat="43.52303" lon="5.31623">
        <ele>175.9</ele>
        <time>2021-02-03T12:30:59Z</time>
      </trkpt>
      <trkpt lat="43.52295" lon="5.31619">
        <ele>175.7</ele>
        <time>2021-02-03T12:31:08Z</time>
      </trkpt>
      <trkpt lat="43.52288" lon="5.31614">
        <ele>175.7</ele>
        <time>2021-02-03T12:31:16Z</time>
      </trkpt>
      <trkpt lat="43.5228" lon="5.31608">
        <ele>175.7</ele>
        <time>2021-02-03T12:31:25Z</time>
      </trkpt>
      <trkpt lat="43.52273" lon="5.31603">
        <ele>175.7</ele>
        <time>2021-02-03T12:31:34Z</time>
      </trkpt>
      <trkpt lat="43.52265" lon="5.31597">
        <ele>175.7</ele>
        <time>2021-02-03T12:31:43Z</time>
      </trkpt>
      <trkpt lat="43.52257" lon="5.31593">
        <ele>175.6</ele>
        <time>2021-02-03T12:31:53Z</time>
      </trkpt>
      <trkpt lat="43.5225" lon="5.31585">
        <ele>175.8</ele>
        <time>2021-02-03T12:32:02Z</time>
      </trkpt>
      <trkpt lat="43.52244" lon="5.31578">
        <ele>175.6</ele>
        <time>2021-02-03T12:32:10Z</time>
      </trkpt>
      <trkpt lat="43.52237" lon="5.31573">
        <ele>175.1</ele>
        <time>2021-02-03T12:32:18Z</time>
      </trkpt>
      <trkpt lat="43.52229" lon="5.31568">
        <ele>174.7</ele>
        <time>2021-02-03T12:32:26Z</time>
      </trkpt>
      <trkpt lat="43.52222" lon="5.31563">
        <ele>174.3</ele>
        <time>2021-02-03T12:32:34Z</time>
      </trkpt>
      <trkpt lat="43.52214" lon="5.31557">
        <ele>174</ele>
        <time>2021-02-03T12:32:43Z</time>
      </trkpt>
      <trkpt lat="43.52207" lon="5.31553">
        <ele>173.7</ele>
        <time>2021-02-03T12:32:51Z</time>
      </trkpt>
      <trkpt lat="43.52199" lon="5.31548">
        <ele>173.4</ele>
        <time>2021-02-03T12:32:59Z</time>
      </trkpt>
      <trkpt lat="43.52192" lon="5.31543">
        <ele>173.3</ele>
        <time>2021-02-03T12:33:07Z</time>
      </trkpt>
      <trkpt lat="43.52185" lon="5.31536">
        <ele>173.3</ele>
        <time>2021-02-03T12:33:15Z</time>
      </trkpt>
      <trkpt lat="43.52177" lon="5.31532">
        <ele>173.2</ele>
        <time>2021-02-03T12:33:23Z</time>
      </trkpt>
      <trkpt lat="43.52169" lon="5.31528">
        <ele>173.1</ele>
        <time>2021-02-03T12:33:30Z</time>
      </trkpt>
      <trkpt lat="43.52161" lon="5.31525">
        <ele>172.9</ele>
        <time>2021-02-03T12:33:40Z</time>
      </trkpt>
      <trkpt lat="43.52153" lon="5.31525">
        <ele>172.5</ele>
        <time>2021-02-03T12:33:49Z</time>
      </trkpt>
      <trkpt lat="43.52144" lon="5.31525">
        <ele>172</ele>
        <time>2021-02-03T12:33:58Z</time>
      </trkpt>
      <trkpt lat="43.52137" lon="5.3153">
        <ele>171.1</ele>
        <time>2021-02-03T12:34:06Z</time>
      </trkpt>
      <trkpt lat="43.52129" lon="5.31534">
        <ele>169.9</ele>
        <time>2021-02-03T12:34:16Z</time>
      </trkpt>
      <trkpt lat="43.5212" lon="5.31532">
        <ele>169.8</ele>
        <time>2021-02-03T12:34:26Z</time>
      </trkpt>
      <trkpt lat="43.52112" lon="5.31529">
        <ele>169.7</ele>
        <time>2021-02-03T12:34:35Z</time>
      </trkpt>
      <trkpt lat="43.52104" lon="5.31527">
        <ele>169.6</ele>
        <time>2021-02-03T12:34:45Z</time>
      </trkpt>
      <trkpt lat="43.52097" lon="5.3152">
        <ele>170.6</ele>
        <time>2021-02-03T12:34:57Z</time>
      </trkpt>
      <trkpt lat="43.52088" lon="5.3152">
        <ele>170.4</ele>
        <time>2021-02-03T12:35:08Z</time>
      </trkpt>
      <trkpt lat="43.52079" lon="5.31515">
        <ele>171.5</ele>
        <time>2021-02-03T12:35:19Z</time>
      </trkpt>
      <trkpt lat="43.52071" lon="5.31512">
        <ele>172.2</ele>
        <time>2021-02-03T12:35:31Z</time>
      </trkpt>
      <trkpt lat="43.52063" lon="5.31509">
        <ele>173</ele>
        <time>2021-02-03T12:35:42Z</time>
      </trkpt>
      <trkpt lat="43.52054" lon="5.3151">
        <ele>172.8</ele>
        <time>2021-02-03T12:36:02Z</time>
      </trkpt>
      <trkpt lat="43.52047" lon="5.31502">
        <ele>174.9</ele>
        <time>2021-02-03T12:36:20Z</time>
      </trkpt>
      <trkpt lat="43.52041" lon="5.31494">
        <ele>176.2</ele>
        <time>2021-02-03T12:36:34Z</time>
      </trkpt>
      <trkpt lat="43.52034" lon="5.31486">
        <ele>177.1</ele>
        <time>2021-02-03T12:36:52Z</time>
      </trkpt>
      <trkpt lat="43.52029" lon="5.31478">
        <ele>178.1</ele>
        <time>2021-02-03T12:37:01Z</time>
      </trkpt>
      <trkpt lat="43.52024" lon="5.31468">
        <ele>179.1</ele>
        <time>2021-02-03T12:37:13Z</time>
      </trkpt>
      <trkpt lat="43.52015" lon="5.31465">
        <ele>179.4</ele>
        <time>2021-02-03T12:37:25Z</time>
      </trkpt>
      <trkpt lat="43.52007" lon="5.31467">
        <ele>179.1</ele>
        <time>2021-02-03T12:37:37Z</time>
      </trkpt>
      <trkpt lat="43.51998" lon="5.31467">
        <ele>179.1</ele>
        <time>2021-02-03T12:37:47Z</time>
      </trkpt>
      <trkpt lat="43.51995" lon="5.31457">
        <ele>179.8</ele>
        <time>2021-02-03T12:37:55Z</time>
      </trkpt>
      <trkpt lat="43.51987" lon="5.31451">
        <ele>179.7</ele>
        <time>2021-02-03T12:38:04Z</time>
      </trkpt>
      <trkpt lat="43.51979" lon="5.3145">
        <ele>179.2</ele>
        <time>2021-02-03T12:38:11Z</time>
      </trkpt>
      <trkpt lat="43.51971" lon="5.31448">
        <ele>178.8</ele>
        <time>2021-02-03T12:38:19Z</time>
      </trkpt>
      <trkpt lat="43.51963" lon="5.31444">
        <ele>178.5</ele>
        <time>2021-02-03T12:38:27Z</time>
      </trkpt>
      <trkpt lat="43.51956" lon="5.31437">
        <ele>178.8</ele>
        <time>2021-02-03T12:38:36Z</time>
      </trkpt>
      <trkpt lat="43.51949" lon="5.31432">
        <ele>178.7</ele>
        <time>2021-02-03T12:38:45Z</time>
      </trkpt>
      <trkpt lat="43.51941" lon="5.31434">
        <ele>178</ele>
        <time>2021-02-03T12:38:53Z</time>
      </trkpt>
      <trkpt lat="43.51932" lon="5.31438">
        <ele>176.8</ele>
        <time>2021-02-03T12:39:10Z</time>
      </trkpt>
      <trkpt lat="43.51924" lon="5.31438">
        <ele>176.2</ele>
        <time>2021-02-03T12:39:18Z</time>
      </trkpt>
      <trkpt lat="43.51916" lon="5.31437">
        <ele>175.5</ele>
        <time>2021-02-03T12:39:26Z</time>
      </trkpt>
      <trkpt lat="43.51908" lon="5.31432">
        <ele>172.8</ele>
        <time>2021-02-03T12:39:34Z</time>
      </trkpt>
      <trkpt lat="43.51902" lon="5.31425">
        <ele>171.1</ele>
        <time>2021-02-03T12:39:44Z</time>
      </trkpt>
      <trkpt lat="43.51896" lon="5.31417">
        <ele>169.9</ele>
        <time>2021-02-03T12:39:54Z</time>
      </trkpt>
      <trkpt lat="43.51893" lon="5.31405">
        <ele>170</ele>
        <time>2021-02-03T12:40:05Z</time>
      </trkpt>
      <trkpt lat="43.51885" lon="5.31398">
        <ele>168.2</ele>
        <time>2021-02-03T12:40:16Z</time>
      </trkpt>
      <trkpt lat="43.51882" lon="5.31408">
        <ele>165.6</ele>
        <time>2021-02-03T12:40:51Z</time>
      </trkpt>
      <trkpt lat="43.51877" lon="5.31419">
        <ele>162.5</ele>
        <time>2021-02-03T12:41:02Z</time>
      </trkpt>
      <trkpt lat="43.51879" lon="5.31407">
        <ele>164.8</ele>
        <time>2021-02-03T12:44:31Z</time>
      </trkpt>
      <trkpt lat="43.51886" lon="5.31399">
        <ele>168.3</ele>
        <time>2021-02-03T12:44:55Z</time>
      </trkpt>
      <trkpt lat="43.5188" lon="5.3139">
        <ele>167.6</ele>
        <time>2021-02-03T12:45:27Z</time>
      </trkpt>
      <trkpt lat="43.51873" lon="5.31383">
        <ele>166.2</ele>
        <time>2021-02-03T12:45:37Z</time>
      </trkpt>
      <trkpt lat="43.51866" lon="5.31376">
        <ele>165.3</ele>
        <time>2021-02-03T12:45:52Z</time>
      </trkpt>
      <trkpt lat="43.5186" lon="5.31368">
        <ele>164.9</ele>
        <time>2021-02-03T12:46:04Z</time>
      </trkpt>
      <trkpt lat="43.51854" lon="5.31359">
        <ele>164.8</ele>
        <time>2021-02-03T12:46:14Z</time>
      </trkpt>
      <trkpt lat="43.5185" lon="5.31348">
        <ele>165.8</ele>
        <time>2021-02-03T12:46:27Z</time>
      </trkpt>
      <trkpt lat="43.51846" lon="5.31338">
        <ele>166.8</ele>
        <time>2021-02-03T12:46:39Z</time>
      </trkpt>
      <trkpt lat="43.51846" lon="5.31326">
        <ele>167.3</ele>
        <time>2021-02-03T12:46:58Z</time>
      </trkpt>
      <trkpt lat="43.51847" lon="5.31314">
        <ele>166.9</ele>
        <time>2021-02-03T12:47:25Z</time>
      </trkpt>
      <trkpt lat="43.51853" lon="5.31305">
        <ele>167.5</ele>
        <time>2021-02-03T12:47:40Z</time>
      </trkpt>
      <trkpt lat="43.51856" lon="5.31295">
        <ele>167.6</ele>
        <time>2021-02-03T12:47:49Z</time>
      </trkpt>
      <trkpt lat="43.51854" lon="5.31283">
        <ele>166.4</ele>
        <time>2021-02-03T12:48:02Z</time>
      </trkpt>
      <trkpt lat="43.51847" lon="5.31276">
        <ele>164.8</ele>
        <time>2021-02-03T12:48:15Z</time>
      </trkpt>
      <trkpt lat="43.51854" lon="5.31284">
        <ele>166.5</ele>
        <time>2021-02-03T12:53:16Z</time>
      </trkpt>
      <trkpt lat="43.51862" lon="5.31289">
        <ele>168.3</ele>
        <time>2021-02-03T12:53:46Z</time>
      </trkpt>
      <trkpt lat="43.51866" lon="5.313">
        <ele>169.7</ele>
        <time>2021-02-03T12:53:58Z</time>
      </trkpt>
      <trkpt lat="43.51869" lon="5.31311">
        <ele>171.2</ele>
        <time>2021-02-03T12:54:17Z</time>
      </trkpt>
      <trkpt lat="43.51869" lon="5.31322">
        <ele>171.9</ele>
        <time>2021-02-03T12:54:27Z</time>
      </trkpt>
      <trkpt lat="43.51873" lon="5.31333">
        <ele>173.5</ele>
        <time>2021-02-03T12:54:39Z</time>
      </trkpt>
      <trkpt lat="43.51881" lon="5.31331">
        <ele>175.2</ele>
        <time>2021-02-03T12:54:47Z</time>
      </trkpt>
      <trkpt lat="43.51889" lon="5.31329">
        <ele>176.7</ele>
        <time>2021-02-03T12:54:55Z</time>
      </trkpt>
      <trkpt lat="43.51897" lon="5.31331">
        <ele>178.6</ele>
        <time>2021-02-03T12:55:02Z</time>
      </trkpt>
      <trkpt lat="43.51906" lon="5.31333">
        <ele>180.6</ele>
        <time>2021-02-03T12:55:10Z</time>
      </trkpt>
      <trkpt lat="43.51914" lon="5.31335">
        <ele>182.3</ele>
        <time>2021-02-03T12:55:18Z</time>
      </trkpt>
      <trkpt lat="43.51921" lon="5.31338">
        <ele>182.7</ele>
        <time>2021-02-03T12:55:25Z</time>
      </trkpt>
      <trkpt lat="43.51929" lon="5.31343">
        <ele>182.5</ele>
        <time>2021-02-03T12:55:35Z</time>
      </trkpt>
      <trkpt lat="43.51937" lon="5.31348">
        <ele>182.4</ele>
        <time>2021-02-03T12:55:45Z</time>
      </trkpt>
      <trkpt lat="43.51945" lon="5.31353">
        <ele>182.3</ele>
        <time>2021-02-03T12:55:53Z</time>
      </trkpt>
      <trkpt lat="43.51953" lon="5.31354">
        <ele>182.4</ele>
        <time>2021-02-03T12:56:02Z</time>
      </trkpt>
      <trkpt lat="43.51961" lon="5.31358">
        <ele>182.5</ele>
        <time>2021-02-03T12:56:11Z</time>
      </trkpt>
      <trkpt lat="43.51968" lon="5.31366">
        <ele>182.5</ele>
        <time>2021-02-03T12:56:20Z</time>
      </trkpt>
      <trkpt lat="43.51974" lon="5.31373">
        <ele>182.6</ele>
        <time>2021-02-03T12:56:29Z</time>
      </trkpt>
      <trkpt lat="43.51981" lon="5.3138">
        <ele>182.8</ele>
        <time>2021-02-03T12:56:38Z</time>
      </trkpt>
      <trkpt lat="43.51988" lon="5.31388">
        <ele>183.1</ele>
        <time>2021-02-03T12:56:47Z</time>
      </trkpt>
      <trkpt lat="43.51995" lon="5.31393">
        <ele>183.4</ele>
        <time>2021-02-03T12:56:54Z</time>
      </trkpt>
      <trkpt lat="43.52003" lon="5.31393">
        <ele>183.7</ele>
        <time>2021-02-03T12:57:02Z</time>
      </trkpt>
      <trkpt lat="43.52009" lon="5.31385">
        <ele>183.7</ele>
        <time>2021-02-03T12:57:10Z</time>
      </trkpt>
      <trkpt lat="43.52015" lon="5.31376">
        <ele>183.6</ele>
        <time>2021-02-03T12:57:18Z</time>
      </trkpt>
      <trkpt lat="43.52022" lon="5.31371">
        <ele>183.5</ele>
        <time>2021-02-03T12:57:27Z</time>
      </trkpt>
      <trkpt lat="43.5203" lon="5.31366">
        <ele>183.4</ele>
        <time>2021-02-03T12:57:36Z</time>
      </trkpt>
      <trkpt lat="43.52037" lon="5.3136">
        <ele>183.3</ele>
        <time>2021-02-03T12:57:45Z</time>
      </trkpt>
      <trkpt lat="43.52046" lon="5.31359">
        <ele>183.3</ele>
        <time>2021-02-03T12:57:54Z</time>
      </trkpt>
      <trkpt lat="43.52054" lon="5.31359">
        <ele>183.3</ele>
        <time>2021-02-03T12:58:03Z</time>
      </trkpt>
      <trkpt lat="43.52063" lon="5.31359">
        <ele>183.3</ele>
        <time>2021-02-03T12:58:11Z</time>
      </trkpt>
      <trkpt lat="43.52072" lon="5.3136">
        <ele>183.3</ele>
        <time>2021-02-03T12:58:20Z</time>
      </trkpt>
      <trkpt lat="43.5208" lon="5.31359">
        <ele>183.2</ele>
        <time>2021-02-03T12:58:28Z</time>
      </trkpt>
      <trkpt lat="43.52088" lon="5.3136">
        <ele>183.3</ele>
        <time>2021-02-03T12:58:37Z</time>
      </trkpt>
      <trkpt lat="43.52097" lon="5.31361">
        <ele>183.4</ele>
        <time>2021-02-03T12:58:47Z</time>
      </trkpt>
      <trkpt lat="43.52106" lon="5.3136">
        <ele>183.5</ele>
        <time>2021-02-03T12:59:08Z</time>
      </trkpt>
      <trkpt lat="43.52113" lon="5.31367">
        <ele>183.8</ele>
        <time>2021-02-03T12:59:18Z</time>
      </trkpt>
      <trkpt lat="43.52121" lon="5.31372">
        <ele>184.1</ele>
        <time>2021-02-03T12:59:28Z</time>
      </trkpt>
      <trkpt lat="43.5213" lon="5.31371">
        <ele>184.1</ele>
        <time>2021-02-03T12:59:37Z</time>
      </trkpt>
      <trkpt lat="43.52137" lon="5.31367">
        <ele>184</ele>
        <time>2021-02-03T12:59:45Z</time>
      </trkpt>
      <trkpt lat="43.52145" lon="5.31361">
        <ele>183.8</ele>
        <time>2021-02-03T12:59:54Z</time>
      </trkpt>
      <trkpt lat="43.52152" lon="5.31356">
        <ele>183.7</ele>
        <time>2021-02-03T13:00:03Z</time>
      </trkpt>
      <trkpt lat="43.52161" lon="5.31353">
        <ele>183.6</ele>
        <time>2021-02-03T13:00:12Z</time>
      </trkpt>
      <trkpt lat="43.52169" lon="5.31354">
        <ele>183.8</ele>
        <time>2021-02-03T13:00:20Z</time>
      </trkpt>
      <trkpt lat="43.52177" lon="5.31358">
        <ele>184</ele>
        <time>2021-02-03T13:00:29Z</time>
      </trkpt>
      <trkpt lat="43.52185" lon="5.31359">
        <ele>184.2</ele>
        <time>2021-02-03T13:00:38Z</time>
      </trkpt>
      <trkpt lat="43.52194" lon="5.31358">
        <ele>184.3</ele>
        <time>2021-02-03T13:00:47Z</time>
      </trkpt>
      <trkpt lat="43.52201" lon="5.31353">
        <ele>184.2</ele>
        <time>2021-02-03T13:00:55Z</time>
      </trkpt>
      <trkpt lat="43.52209" lon="5.3135">
        <ele>184.3</ele>
        <time>2021-02-03T13:01:03Z</time>
      </trkpt>
      <trkpt lat="43.52218" lon="5.31349">
        <ele>184.4</ele>
        <time>2021-02-03T13:01:11Z</time>
      </trkpt>
      <trkpt lat="43.52226" lon="5.31348">
        <ele>184.6</ele>
        <time>2021-02-03T13:01:19Z</time>
      </trkpt>
      <trkpt lat="43.52235" lon="5.31347">
        <ele>184.7</ele>
        <time>2021-02-03T13:01:27Z</time>
      </trkpt>
      <trkpt lat="43.52243" lon="5.31345">
        <ele>184.9</ele>
        <time>2021-02-03T13:01:35Z</time>
      </trkpt>
      <trkpt lat="43.52252" lon="5.31342">
        <ele>185.1</ele>
        <time>2021-02-03T13:01:44Z</time>
      </trkpt>
      <trkpt lat="43.5226" lon="5.31341">
        <ele>185.5</ele>
        <time>2021-02-03T13:01:52Z</time>
      </trkpt>
      <trkpt lat="43.52269" lon="5.31341">
        <ele>185.9</ele>
        <time>2021-02-03T13:02:00Z</time>
      </trkpt>
      <trkpt lat="43.52277" lon="5.31344">
        <ele>186.3</ele>
        <time>2021-02-03T13:02:09Z</time>
      </trkpt>
      <trkpt lat="43.52286" lon="5.31345">
        <ele>186.6</ele>
        <time>2021-02-03T13:02:17Z</time>
      </trkpt>
      <trkpt lat="43.52294" lon="5.31346">
        <ele>187</ele>
        <time>2021-02-03T13:02:25Z</time>
      </trkpt>
      <trkpt lat="43.52303" lon="5.31347">
        <ele>187.4</ele>
        <time>2021-02-03T13:02:34Z</time>
      </trkpt>
      <trkpt lat="43.5231" lon="5.31353">
        <ele>187.7</ele>
        <time>2021-02-03T13:02:44Z</time>
      </trkpt>
      <trkpt lat="43.52318" lon="5.31351">
        <ele>188.1</ele>
        <time>2021-02-03T13:02:53Z</time>
      </trkpt>
      <trkpt lat="43.52326" lon="5.31356">
        <ele>188.4</ele>
        <time>2021-02-03T13:03:03Z</time>
      </trkpt>
      <trkpt lat="43.52331" lon="5.31366">
        <ele>188.5</ele>
        <time>2021-02-03T13:03:12Z</time>
      </trkpt>
      <trkpt lat="43.52339" lon="5.31363">
        <ele>189.1</ele>
        <time>2021-02-03T13:03:24Z</time>
      </trkpt>
      <trkpt lat="43.52346" lon="5.31357">
        <ele>189.8</ele>
        <time>2021-02-03T13:03:34Z</time>
      </trkpt>
      <trkpt lat="43.52355" lon="5.31358">
        <ele>190.5</ele>
        <time>2021-02-03T13:03:45Z</time>
      </trkpt>
      <trkpt lat="43.52364" lon="5.31358">
        <ele>191.2</ele>
        <time>2021-02-03T13:03:57Z</time>
      </trkpt>
      <trkpt lat="43.52372" lon="5.31355">
        <ele>191.9</ele>
        <time>2021-02-03T13:04:11Z</time>
      </trkpt>
      <trkpt lat="43.52381" lon="5.31356">
        <ele>192.6</ele>
        <time>2021-02-03T13:04:23Z</time>
      </trkpt>
      <trkpt lat="43.52389" lon="5.31355">
        <ele>193.3</ele>
        <time>2021-02-03T13:04:37Z</time>
      </trkpt>
      <trkpt lat="43.52398" lon="5.31353">
        <ele>194</ele>
        <time>2021-02-03T13:04:50Z</time>
      </trkpt>
      <trkpt lat="43.52407" lon="5.31354">
        <ele>194.7</ele>
        <time>2021-02-03T13:05:02Z</time>
      </trkpt>
      <trkpt lat="43.52415" lon="5.31357">
        <ele>195.4</ele>
        <time>2021-02-03T13:05:14Z</time>
      </trkpt>
      <trkpt lat="43.52422" lon="5.31364">
        <ele>195.9</ele>
        <time>2021-02-03T13:05:26Z</time>
      </trkpt>
      <trkpt lat="43.52429" lon="5.31371">
        <ele>196.4</ele>
        <time>2021-02-03T13:05:51Z</time>
      </trkpt>
      <trkpt lat="43.52436" lon="5.31378">
        <ele>196.8</ele>
        <time>2021-02-03T13:06:01Z</time>
      </trkpt>
      <trkpt lat="43.52443" lon="5.31385">
        <ele>197.1</ele>
        <time>2021-02-03T13:06:09Z</time>
      </trkpt>
      <trkpt lat="43.5245" lon="5.31391">
        <ele>197.4</ele>
        <time>2021-02-03T13:06:19Z</time>
      </trkpt>
      <trkpt lat="43.52458" lon="5.31397">
        <ele>197.7</ele>
        <time>2021-02-03T13:06:27Z</time>
      </trkpt>
      <trkpt lat="43.52466" lon="5.314">
        <ele>198</ele>
        <time>2021-02-03T13:06:36Z</time>
      </trkpt>
      <trkpt lat="43.52475" lon="5.314">
        <ele>198.3</ele>
        <time>2021-02-03T13:06:46Z</time>
      </trkpt>
      <trkpt lat="43.52483" lon="5.314">
        <ele>198.5</ele>
        <time>2021-02-03T13:06:55Z</time>
      </trkpt>
      <trkpt lat="43.52492" lon="5.31398">
        <ele>198.8</ele>
        <time>2021-02-03T13:07:04Z</time>
      </trkpt>
      <trkpt lat="43.525" lon="5.31394">
        <ele>199</ele>
        <time>2021-02-03T13:07:15Z</time>
      </trkpt>
      <trkpt lat="43.52509" lon="5.31391">
        <ele>199.2</ele>
        <time>2021-02-03T13:07:25Z</time>
      </trkpt>
      <trkpt lat="43.52517" lon="5.31388">
        <ele>199.4</ele>
        <time>2021-02-03T13:07:34Z</time>
      </trkpt>
      <trkpt lat="43.52525" lon="5.31386">
        <ele>199.6</ele>
        <time>2021-02-03T13:07:43Z</time>
      </trkpt>
      <trkpt lat="43.52534" lon="5.31387">
        <ele>199.8</ele>
        <time>2021-02-03T13:07:51Z</time>
      </trkpt>
      <trkpt lat="43.52542" lon="5.31386">
        <ele>200.1</ele>
        <time>2021-02-03T13:07:59Z</time>
      </trkpt>
      <trkpt lat="43.52551" lon="5.31384">
        <ele>200.3</ele>
        <time>2021-02-03T13:08:06Z</time>
      </trkpt>
      <trkpt lat="43.52559" lon="5.3138">
        <ele>200.6</ele>
        <time>2021-02-03T13:08:14Z</time>
      </trkpt>
      <trkpt lat="43.52567" lon="5.31378">
        <ele>200.9</ele>
        <time>2021-02-03T13:08:23Z</time>
      </trkpt>
      <trkpt lat="43.52575" lon="5.31377">
        <ele>201.2</ele>
        <time>2021-02-03T13:08:31Z</time>
      </trkpt>
      <trkpt lat="43.52583" lon="5.31375">
        <ele>201.5</ele>
        <time>2021-02-03T13:08:39Z</time>
      </trkpt>
      <trkpt lat="43.52591" lon="5.31372">
        <ele>202</ele>
        <time>2021-02-03T13:08:47Z</time>
      </trkpt>
      <trkpt lat="43.52599" lon="5.31369">
        <ele>202.4</ele>
        <time>2021-02-03T13:08:55Z</time>
      </trkpt>
      <trkpt lat="43.52607" lon="5.31367">
        <ele>202.9</ele>
        <time>2021-02-03T13:09:03Z</time>
      </trkpt>
      <trkpt lat="43.52616" lon="5.31364">
        <ele>203.4</ele>
        <time>2021-02-03T13:09:11Z</time>
      </trkpt>
      <trkpt lat="43.52624" lon="5.31362">
        <ele>203.9</ele>
        <time>2021-02-03T13:09:19Z</time>
      </trkpt>
      <trkpt lat="43.52633" lon="5.3136">
        <ele>204.4</ele>
        <time>2021-02-03T13:09:27Z</time>
      </trkpt>
      <trkpt lat="43.5264" lon="5.31358">
        <ele>204.9</ele>
        <time>2021-02-03T13:09:36Z</time>
      </trkpt>
      <trkpt lat="43.52649" lon="5.31355">
        <ele>205.6</ele>
        <time>2021-02-03T13:09:45Z</time>
      </trkpt>
      <trkpt lat="43.52656" lon="5.31349">
        <ele>206.3</ele>
        <time>2021-02-03T13:09:59Z</time>
      </trkpt>
      <trkpt lat="43.52664" lon="5.31349">
        <ele>206.8</ele>
        <time>2021-02-03T13:10:07Z</time>
      </trkpt>
      <trkpt lat="43.52673" lon="5.31346">
        <ele>207.1</ele>
        <time>2021-02-03T13:10:16Z</time>
      </trkpt>
      <trkpt lat="43.52679" lon="5.31339">
        <ele>207.6</ele>
        <time>2021-02-03T13:10:24Z</time>
      </trkpt>
      <trkpt lat="43.52687" lon="5.3134">
        <ele>207.6</ele>
        <time>2021-02-03T13:10:46Z</time>
      </trkpt>
      <trkpt lat="43.52695" lon="5.31338">
        <ele>207.7</ele>
        <time>2021-02-03T13:10:54Z</time>
      </trkpt>
      <trkpt lat="43.52703" lon="5.31336">
        <ele>207.8</ele>
        <time>2021-02-03T13:11:03Z</time>
      </trkpt>
      <trkpt lat="43.5271" lon="5.31334">
        <ele>208</ele>
        <time>2021-02-03T13:11:11Z</time>
      </trkpt>
      <trkpt lat="43.52719" lon="5.31332">
        <ele>208</ele>
        <time>2021-02-03T13:11:20Z</time>
      </trkpt>
      <trkpt lat="43.52727" lon="5.31327">
        <ele>208</ele>
        <time>2021-02-03T13:11:29Z</time>
      </trkpt>
      <trkpt lat="43.52735" lon="5.31323">
        <ele>208.1</ele>
        <time>2021-02-03T13:11:38Z</time>
      </trkpt>
      <trkpt lat="43.52743" lon="5.31323">
        <ele>208.1</ele>
        <time>2021-02-03T13:11:46Z</time>
      </trkpt>
      <trkpt lat="43.52752" lon="5.31322">
        <ele>208.1</ele>
        <time>2021-02-03T13:11:54Z</time>
      </trkpt>
      <trkpt lat="43.52761" lon="5.31321">
        <ele>207.8</ele>
        <time>2021-02-03T13:12:02Z</time>
      </trkpt>
      <trkpt lat="43.52769" lon="5.31321">
        <ele>207.5</ele>
        <time>2021-02-03T13:12:10Z</time>
      </trkpt>
      <trkpt lat="43.52778" lon="5.31322">
        <ele>207.2</ele>
        <time>2021-02-03T13:12:18Z</time>
      </trkpt>
      <trkpt lat="43.52786" lon="5.3132">
        <ele>206.9</ele>
        <time>2021-02-03T13:12:26Z</time>
      </trkpt>
      <trkpt lat="43.52794" lon="5.3132">
        <ele>206.7</ele>
        <time>2021-02-03T13:12:36Z</time>
      </trkpt>
      <trkpt lat="43.52803" lon="5.31317">
        <ele>206.4</ele>
        <time>2021-02-03T13:12:45Z</time>
      </trkpt>
      <trkpt lat="43.52812" lon="5.31317">
        <ele>206.1</ele>
        <time>2021-02-03T13:12:54Z</time>
      </trkpt>
      <trkpt lat="43.5282" lon="5.31315">
        <ele>205.9</ele>
        <time>2021-02-03T13:13:03Z</time>
      </trkpt>
      <trkpt lat="43.52828" lon="5.31313">
        <ele>205.7</ele>
        <time>2021-02-03T13:13:11Z</time>
      </trkpt>
      <trkpt lat="43.52836" lon="5.31309">
        <ele>205.5</ele>
        <time>2021-02-03T13:13:21Z</time>
      </trkpt>
      <trkpt lat="43.52845" lon="5.31309">
        <ele>205.3</ele>
        <time>2021-02-03T13:13:30Z</time>
      </trkpt>
      <trkpt lat="43.52854" lon="5.31308">
        <ele>205.1</ele>
        <time>2021-02-03T13:13:39Z</time>
      </trkpt>
      <trkpt lat="43.52862" lon="5.31308">
        <ele>204.9</ele>
        <time>2021-02-03T13:13:48Z</time>
      </trkpt>
      <trkpt lat="43.52871" lon="5.31307">
        <ele>204.8</ele>
        <time>2021-02-03T13:13:57Z</time>
      </trkpt>
      <trkpt lat="43.5288" lon="5.31307">
        <ele>204.6</ele>
        <time>2021-02-03T13:14:06Z</time>
      </trkpt>
      <trkpt lat="43.52888" lon="5.31308">
        <ele>204.4</ele>
        <time>2021-02-03T13:14:15Z</time>
      </trkpt>
      <trkpt lat="43.52897" lon="5.31307">
        <ele>204.2</ele>
        <time>2021-02-03T13:14:24Z</time>
      </trkpt>
      <trkpt lat="43.52904" lon="5.31304">
        <ele>204</ele>
        <time>2021-02-03T13:14:34Z</time>
      </trkpt>
      <trkpt lat="43.52913" lon="5.31301">
        <ele>203.7</ele>
        <time>2021-02-03T13:14:44Z</time>
      </trkpt>
      <trkpt lat="43.5292" lon="5.31294">
        <ele>203.5</ele>
        <time>2021-02-03T13:14:54Z</time>
      </trkpt>
      <trkpt lat="43.52926" lon="5.31285">
        <ele>203.2</ele>
        <time>2021-02-03T13:15:10Z</time>
      </trkpt>
      <trkpt lat="43.5293" lon="5.31275">
        <ele>202.9</ele>
        <time>2021-02-03T13:15:20Z</time>
      </trkpt>
      <trkpt lat="43.52937" lon="5.31268">
        <ele>202.5</ele>
        <time>2021-02-03T13:15:30Z</time>
      </trkpt>
      <trkpt lat="43.52943" lon="5.3126">
        <ele>202.1</ele>
        <time>2021-02-03T13:15:39Z</time>
      </trkpt>
      <trkpt lat="43.52951" lon="5.31256">
        <ele>201.6</ele>
        <time>2021-02-03T13:15:49Z</time>
      </trkpt>
      <trkpt lat="43.52959" lon="5.31254">
        <ele>201.1</ele>
        <time>2021-02-03T13:15:59Z</time>
      </trkpt>
      <trkpt lat="43.52967" lon="5.3125">
        <ele>200.6</ele>
        <time>2021-02-03T13:16:10Z</time>
      </trkpt>
      <trkpt lat="43.52976" lon="5.31245">
        <ele>199.8</ele>
        <time>2021-02-03T13:16:23Z</time>
      </trkpt>
      <trkpt lat="43.52983" lon="5.31238">
        <ele>198.9</ele>
        <time>2021-02-03T13:16:33Z</time>
      </trkpt>
      <trkpt lat="43.52988" lon="5.31229">
        <ele>198</ele>
        <time>2021-02-03T13:16:43Z</time>
      </trkpt>
      <trkpt lat="43.52992" lon="5.31219">
        <ele>197</ele>
        <time>2021-02-03T13:16:54Z</time>
      </trkpt>
      <trkpt lat="43.52999" lon="5.31211">
        <ele>196.2</ele>
        <time>2021-02-03T13:17:04Z</time>
      </trkpt>
      <trkpt lat="43.53007" lon="5.31206">
        <ele>195.8</ele>
        <time>2021-02-03T13:17:14Z</time>
      </trkpt>
      <trkpt lat="43.53015" lon="5.31201">
        <ele>195.4</ele>
        <time>2021-02-03T13:17:25Z</time>
      </trkpt>
      <trkpt lat="43.53023" lon="5.31197">
        <ele>195.1</ele>
        <time>2021-02-03T13:17:35Z</time>
      </trkpt>
      <trkpt lat="43.5303" lon="5.31194">
        <ele>194.9</ele>
        <time>2021-02-03T13:17:45Z</time>
      </trkpt>
      <trkpt lat="43.53038" lon="5.31188">
        <ele>194.5</ele>
        <time>2021-02-03T13:17:55Z</time>
      </trkpt>
      <trkpt lat="43.53045" lon="5.31183">
        <ele>194.3</ele>
        <time>2021-02-03T13:18:07Z</time>
      </trkpt>
      <trkpt lat="43.53054" lon="5.31182">
        <ele>194.3</ele>
        <time>2021-02-03T13:18:21Z</time>
      </trkpt>
      <trkpt lat="43.53061" lon="5.31176">
        <ele>194.1</ele>
        <time>2021-02-03T13:20:12Z</time>
      </trkpt>
      <trkpt lat="43.53067" lon="5.31167">
        <ele>193.8</ele>
        <time>2021-02-03T13:21:02Z</time>
      </trkpt>
      <trkpt lat="43.5307" lon="5.31156">
        <ele>194.1</ele>
        <time>2021-02-03T13:21:10Z</time>
      </trkpt>
      <trkpt lat="43.53069" lon="5.31144">
        <ele>194.4</ele>
        <time>2021-02-03T13:21:19Z</time>
      </trkpt>
      <trkpt lat="43.53066" lon="5.31132">
        <ele>194.5</ele>
        <time>2021-02-03T13:21:31Z</time>
      </trkpt>
      <trkpt lat="43.53063" lon="5.31121">
        <ele>194.6</ele>
        <time>2021-02-03T13:21:40Z</time>
      </trkpt>
      <trkpt lat="43.5306" lon="5.3111">
        <ele>194.6</ele>
        <time>2021-02-03T13:21:51Z</time>
      </trkpt>
      <trkpt lat="43.53057" lon="5.31099">
        <ele>194.6</ele>
        <time>2021-02-03T13:22:00Z</time>
      </trkpt>
      <trkpt lat="43.53055" lon="5.31088">
        <ele>194.5</ele>
        <time>2021-02-03T13:22:09Z</time>
      </trkpt>
      <trkpt lat="43.53052" lon="5.31076">
        <ele>194.3</ele>
        <time>2021-02-03T13:22:20Z</time>
      </trkpt>
      <trkpt lat="43.5305" lon="5.31065">
        <ele>194</ele>
        <time>2021-02-03T13:22:30Z</time>
      </trkpt>
      <trkpt lat="43.53048" lon="5.31053">
        <ele>193.8</ele>
        <time>2021-02-03T13:22:40Z</time>
      </trkpt>
      <trkpt lat="43.53046" lon="5.31042">
        <ele>193.4</ele>
        <time>2021-02-03T13:22:50Z</time>
      </trkpt>
      <trkpt lat="43.53044" lon="5.31031">
        <ele>193.2</ele>
        <time>2021-02-03T13:22:58Z</time>
      </trkpt>
      <trkpt lat="43.53043" lon="5.3102">
        <ele>192.9</ele>
        <time>2021-02-03T13:23:06Z</time>
      </trkpt>
      <trkpt lat="43.53041" lon="5.31009">
        <ele>192.6</ele>
        <time>2021-02-03T13:23:14Z</time>
      </trkpt>
      <trkpt lat="43.5304" lon="5.30998">
        <ele>192.3</ele>
        <time>2021-02-03T13:23:22Z</time>
      </trkpt>
      <trkpt lat="43.53037" lon="5.30987">
        <ele>191.5</ele>
        <time>2021-02-03T13:23:46Z</time>
      </trkpt>
      <trkpt lat="43.53035" lon="5.30975">
        <ele>190.9</ele>
        <time>2021-02-03T13:23:55Z</time>
      </trkpt>
      <trkpt lat="43.53035" lon="5.30964">
        <ele>190.5</ele>
        <time>2021-02-03T13:24:06Z</time>
      </trkpt>
      <trkpt lat="43.53035" lon="5.30952">
        <ele>190.2</ele>
        <time>2021-02-03T13:24:16Z</time>
      </trkpt>
      <trkpt lat="43.53038" lon="5.3094">
        <ele>190.2</ele>
        <time>2021-02-03T13:24:27Z</time>
      </trkpt>
      <trkpt lat="43.53042" lon="5.30929">
        <ele>190.4</ele>
        <time>2021-02-03T13:24:36Z</time>
      </trkpt>
      <trkpt lat="43.53046" lon="5.30919">
        <ele>190.6</ele>
        <time>2021-02-03T13:24:46Z</time>
      </trkpt>
      <trkpt lat="43.53048" lon="5.30907">
        <ele>190.5</ele>
        <time>2021-02-03T13:24:56Z</time>
      </trkpt>
      <trkpt lat="43.53051" lon="5.30896">
        <ele>190.4</ele>
        <time>2021-02-03T13:25:05Z</time>
      </trkpt>
      <trkpt lat="43.53053" lon="5.30884">
        <ele>190.1</ele>
        <time>2021-02-03T13:25:14Z</time>
      </trkpt>
      <trkpt lat="43.53053" lon="5.30872">
        <ele>189.5</ele>
        <time>2021-02-03T13:25:24Z</time>
      </trkpt>
      <trkpt lat="43.5305" lon="5.30861">
        <ele>188.8</ele>
        <time>2021-02-03T13:25:33Z</time>
      </trkpt>
      <trkpt lat="43.53046" lon="5.3085">
        <ele>188</ele>
        <time>2021-02-03T13:25:42Z</time>
      </trkpt>
      <trkpt lat="43.53041" lon="5.3084">
        <ele>187.2</ele>
        <time>2021-02-03T13:25:51Z</time>
      </trkpt>
      <trkpt lat="43.53036" lon="5.30832">
        <ele>186.7</ele>
        <time>2021-02-03T13:25:59Z</time>
      </trkpt>
      <trkpt lat="43.5303" lon="5.30823">
        <ele>186.8</ele>
        <time>2021-02-03T13:26:07Z</time>
      </trkpt>
      <trkpt lat="43.53025" lon="5.30816">
        <ele>187</ele>
        <time>2021-02-03T13:26:15Z</time>
      </trkpt>
      <trkpt lat="43.53018" lon="5.30808">
        <ele>187.3</ele>
        <time>2021-02-03T13:26:24Z</time>
      </trkpt>
      <trkpt lat="43.53013" lon="5.308">
        <ele>187.7</ele>
        <time>2021-02-03T13:26:32Z</time>
      </trkpt>
      <trkpt lat="43.53008" lon="5.30791">
        <ele>188.2</ele>
        <time>2021-02-03T13:26:40Z</time>
      </trkpt>
      <trkpt lat="43.53006" lon="5.3078">
        <ele>189.2</ele>
        <time>2021-02-03T13:26:48Z</time>
      </trkpt>
      <trkpt lat="43.52998" lon="5.30778">
        <ele>189.5</ele>
        <time>2021-02-03T13:27:03Z</time>
      </trkpt>
      <trkpt lat="43.5299" lon="5.30772">
        <ele>190.4</ele>
        <time>2021-02-03T13:31:06Z</time>
      </trkpt>
      <trkpt lat="43.52982" lon="5.30769">
        <ele>191</ele>
        <time>2021-02-03T13:31:17Z</time>
      </trkpt>
      <trkpt lat="43.52973" lon="5.30767">
        <ele>191.6</ele>
        <time>2021-02-03T13:31:28Z</time>
      </trkpt>
      <trkpt lat="43.52965" lon="5.30764">
        <ele>192.4</ele>
        <time>2021-02-03T13:31:39Z</time>
      </trkpt>
      <trkpt lat="43.52957" lon="5.30761">
        <ele>193.2</ele>
        <time>2021-02-03T13:31:51Z</time>
      </trkpt>
      <trkpt lat="43.5295" lon="5.30754">
        <ele>194.5</ele>
        <time>2021-02-03T13:32:04Z</time>
      </trkpt>
      <trkpt lat="43.52942" lon="5.30747">
        <ele>195.8</ele>
        <time>2021-02-03T13:32:17Z</time>
      </trkpt>
      <trkpt lat="43.52946" lon="5.30737">
        <ele>196.9</ele>
        <time>2021-02-03T13:32:34Z</time>
      </trkpt>
      <trkpt lat="43.52951" lon="5.30727">
        <ele>198</ele>
        <time>2021-02-03T13:32:46Z</time>
      </trkpt>
      <trkpt lat="43.52957" lon="5.3072">
        <ele>198.6</ele>
        <time>2021-02-03T13:32:57Z</time>
      </trkpt>
      <trkpt lat="43.52961" lon="5.30709">
        <ele>199.8</ele>
        <time>2021-02-03T13:33:09Z</time>
      </trkpt>
      <trkpt lat="43.52966" lon="5.30699">
        <ele>200.9</ele>
        <time>2021-02-03T13:33:20Z</time>
      </trkpt>
      <trkpt lat="43.5297" lon="5.30688">
        <ele>202.2</ele>
        <time>2021-02-03T13:33:31Z</time>
      </trkpt>
      <trkpt lat="43.52976" lon="5.30679">
        <ele>203.1</ele>
        <time>2021-02-03T13:33:42Z</time>
      </trkpt>
      <trkpt lat="43.52983" lon="5.30671">
        <ele>204</ele>
        <time>2021-02-03T13:33:53Z</time>
      </trkpt>
      <trkpt lat="43.52989" lon="5.30664">
        <ele>204.6</ele>
        <time>2021-02-03T13:34:02Z</time>
      </trkpt>
      <trkpt lat="43.52995" lon="5.30655">
        <ele>205.4</ele>
        <time>2021-02-03T13:34:12Z</time>
      </trkpt>
      <trkpt lat="43.52998" lon="5.30644">
        <ele>206.6</ele>
        <time>2021-02-03T13:34:23Z</time>
      </trkpt>
      <trkpt lat="43.53001" lon="5.30632">
        <ele>207.6</ele>
        <time>2021-02-03T13:34:33Z</time>
      </trkpt>
      <trkpt lat="43.53005" lon="5.30622">
        <ele>208.1</ele>
        <time>2021-02-03T13:34:44Z</time>
      </trkpt>
      <trkpt lat="43.53009" lon="5.30611">
        <ele>208.7</ele>
        <time>2021-02-03T13:34:54Z</time>
      </trkpt>
      <trkpt lat="43.53013" lon="5.306">
        <ele>209.3</ele>
        <time>2021-02-03T13:35:05Z</time>
      </trkpt>
      <trkpt lat="43.53018" lon="5.30591">
        <ele>209.6</ele>
        <time>2021-02-03T13:35:14Z</time>
      </trkpt>
      <trkpt lat="43.53023" lon="5.30581">
        <ele>210</ele>
        <time>2021-02-03T13:35:23Z</time>
      </trkpt>
      <trkpt lat="43.53028" lon="5.30573">
        <ele>210.1</ele>
        <time>2021-02-03T13:35:31Z</time>
      </trkpt>
      <trkpt lat="43.53033" lon="5.30564">
        <ele>210.3</ele>
        <time>2021-02-03T13:35:40Z</time>
      </trkpt>
      <trkpt lat="43.53039" lon="5.30555">
        <ele>210.5</ele>
        <time>2021-02-03T13:35:50Z</time>
      </trkpt>
      <trkpt lat="43.53043" lon="5.30546">
        <ele>210.9</ele>
        <time>2021-02-03T13:35:59Z</time>
      </trkpt>
      <trkpt lat="43.53049" lon="5.30537">
        <ele>211.1</ele>
        <time>2021-02-03T13:36:09Z</time>
      </trkpt>
      <trkpt lat="43.53054" lon="5.30527">
        <ele>211.6</ele>
        <time>2021-02-03T13:36:18Z</time>
      </trkpt>
      <trkpt lat="43.53059" lon="5.30518">
        <ele>211.9</ele>
        <time>2021-02-03T13:36:26Z</time>
      </trkpt>
      <trkpt lat="43.53063" lon="5.30509">
        <ele>212.4</ele>
        <time>2021-02-03T13:36:34Z</time>
      </trkpt>
      <trkpt lat="43.53069" lon="5.30499">
        <ele>212.9</ele>
        <time>2021-02-03T13:36:43Z</time>
      </trkpt>
      <trkpt lat="43.53073" lon="5.30488">
        <ele>213.5</ele>
        <time>2021-02-03T13:36:53Z</time>
      </trkpt>
      <trkpt lat="43.53076" lon="5.30477">
        <ele>214.3</ele>
        <time>2021-02-03T13:37:03Z</time>
      </trkpt>
      <trkpt lat="43.53079" lon="5.30466">
        <ele>215.1</ele>
        <time>2021-02-03T13:37:13Z</time>
      </trkpt>
      <trkpt lat="43.53082" lon="5.30455">
        <ele>216</ele>
        <time>2021-02-03T13:37:22Z</time>
      </trkpt>
      <trkpt lat="43.53083" lon="5.30444">
        <ele>217.1</ele>
        <time>2021-02-03T13:37:30Z</time>
      </trkpt>
      <trkpt lat="43.53082" lon="5.30431">
        <ele>218.5</ele>
        <time>2021-02-03T13:37:39Z</time>
      </trkpt>
      <trkpt lat="43.53081" lon="5.3042">
        <ele>219.8</ele>
        <time>2021-02-03T13:37:47Z</time>
      </trkpt>
      <trkpt lat="43.53082" lon="5.30409">
        <ele>220.9</ele>
        <time>2021-02-03T13:37:55Z</time>
      </trkpt>
      <trkpt lat="43.53085" lon="5.30398">
        <ele>221.7</ele>
        <time>2021-02-03T13:38:03Z</time>
      </trkpt>
      <trkpt lat="43.5309" lon="5.30388">
        <ele>222.4</ele>
        <time>2021-02-03T13:38:13Z</time>
      </trkpt>
      <trkpt lat="43.53096" lon="5.3038">
        <ele>222.7</ele>
        <time>2021-02-03T13:38:22Z</time>
      </trkpt>
      <trkpt lat="43.531" lon="5.3037">
        <ele>223.2</ele>
        <time>2021-02-03T13:38:32Z</time>
      </trkpt>
      <trkpt lat="43.53104" lon="5.30359">
        <ele>223.8</ele>
        <time>2021-02-03T13:38:42Z</time>
      </trkpt>
      <trkpt lat="43.53109" lon="5.3035">
        <ele>224.2</ele>
        <time>2021-02-03T13:38:51Z</time>
      </trkpt>
      <trkpt lat="43.53115" lon="5.3034">
        <ele>224.5</ele>
        <time>2021-02-03T13:39:00Z</time>
      </trkpt>
      <trkpt lat="43.5312" lon="5.30331">
        <ele>224.6</ele>
        <time>2021-02-03T13:39:09Z</time>
      </trkpt>
      <trkpt lat="43.53126" lon="5.30321">
        <ele>225</ele>
        <time>2021-02-03T13:39:18Z</time>
      </trkpt>
      <trkpt lat="43.53131" lon="5.30312">
        <ele>225.2</ele>
        <time>2021-02-03T13:39:27Z</time>
      </trkpt>
      <trkpt lat="43.53135" lon="5.30302">
        <ele>225.6</ele>
        <time>2021-02-03T13:39:35Z</time>
      </trkpt>
      <trkpt lat="43.5314" lon="5.30291">
        <ele>225.8</ele>
        <time>2021-02-03T13:39:44Z</time>
      </trkpt>
      <trkpt lat="43.53144" lon="5.30281">
        <ele>226</ele>
        <time>2021-02-03T13:39:53Z</time>
      </trkpt>
      <trkpt lat="43.53148" lon="5.3027">
        <ele>226.3</ele>
        <time>2021-02-03T13:40:03Z</time>
      </trkpt>
      <trkpt lat="43.53151" lon="5.3026">
        <ele>226.6</ele>
        <time>2021-02-03T13:40:12Z</time>
      </trkpt>
      <trkpt lat="43.53155" lon="5.30249">
        <ele>226.8</ele>
        <time>2021-02-03T13:40:21Z</time>
      </trkpt>
      <trkpt lat="43.53158" lon="5.30239">
        <ele>227.1</ele>
        <time>2021-02-03T13:40:30Z</time>
      </trkpt>
      <trkpt lat="43.53162" lon="5.30228">
        <ele>227.5</ele>
        <time>2021-02-03T13:40:39Z</time>
      </trkpt>
      <trkpt lat="43.53167" lon="5.30219">
        <ele>227.6</ele>
        <time>2021-02-03T13:40:47Z</time>
      </trkpt>
      <trkpt lat="43.5317" lon="5.30208">
        <ele>228.7</ele>
        <time>2021-02-03T13:40:55Z</time>
      </trkpt>
      <trkpt lat="43.53173" lon="5.30197">
        <ele>229.7</ele>
        <time>2021-02-03T13:41:03Z</time>
      </trkpt>
      <trkpt lat="43.53176" lon="5.30186">
        <ele>230.7</ele>
        <time>2021-02-03T13:41:11Z</time>
      </trkpt>
      <trkpt lat="43.53178" lon="5.30174">
        <ele>231.7</ele>
        <time>2021-02-03T13:41:20Z</time>
      </trkpt>
      <trkpt lat="43.53181" lon="5.30163">
        <ele>232.6</ele>
        <time>2021-02-03T13:41:28Z</time>
      </trkpt>
      <trkpt lat="43.53183" lon="5.30152">
        <ele>233.7</ele>
        <time>2021-02-03T13:41:36Z</time>
      </trkpt>
      <trkpt lat="43.53187" lon="5.30142">
        <ele>234.7</ele>
        <time>2021-02-03T13:41:44Z</time>
      </trkpt>
      <trkpt lat="43.53191" lon="5.30132">
        <ele>235.6</ele>
        <time>2021-02-03T13:41:52Z</time>
      </trkpt>
      <trkpt lat="43.53195" lon="5.30122">
        <ele>236.4</ele>
        <time>2021-02-03T13:41:59Z</time>
      </trkpt>
      <trkpt lat="43.53199" lon="5.30112">
        <ele>237.1</ele>
        <time>2021-02-03T13:42:07Z</time>
      </trkpt>
      <trkpt lat="43.53205" lon="5.30103">
        <ele>237.7</ele>
        <time>2021-02-03T13:42:16Z</time>
      </trkpt>
      <trkpt lat="43.53212" lon="5.30095">
        <ele>238</ele>
        <time>2021-02-03T13:42:24Z</time>
      </trkpt>
      <trkpt lat="43.53216" lon="5.30085">
        <ele>238.5</ele>
        <time>2021-02-03T13:42:35Z</time>
      </trkpt>
      <trkpt lat="43.53225" lon="5.30085">
        <ele>238.1</ele>
        <time>2021-02-03T13:42:47Z</time>
      </trkpt>
      <trkpt lat="43.53232" lon="5.3008">
        <ele>238</ele>
        <time>2021-02-03T13:42:56Z</time>
      </trkpt>
      <trkpt lat="43.5324" lon="5.30075">
        <ele>238</ele>
        <time>2021-02-03T13:43:05Z</time>
      </trkpt>
      <trkpt lat="43.53248" lon="5.30071">
        <ele>237.9</ele>
        <time>2021-02-03T13:43:13Z</time>
      </trkpt>
      <trkpt lat="43.53255" lon="5.30067">
        <ele>238.3</ele>
        <time>2021-02-03T13:43:21Z</time>
      </trkpt>
      <trkpt lat="43.53263" lon="5.30063">
        <ele>238.9</ele>
        <time>2021-02-03T13:43:30Z</time>
      </trkpt>
      <trkpt lat="43.53271" lon="5.30059">
        <ele>239.6</ele>
        <time>2021-02-03T13:43:39Z</time>
      </trkpt>
      <trkpt lat="43.53279" lon="5.30055">
        <ele>240.2</ele>
        <time>2021-02-03T13:43:48Z</time>
      </trkpt>
      <trkpt lat="43.53287" lon="5.30052">
        <ele>240.8</ele>
        <time>2021-02-03T13:43:57Z</time>
      </trkpt>
      <trkpt lat="43.53296" lon="5.30049">
        <ele>241.4</ele>
        <time>2021-02-03T13:46:48Z</time>
      </trkpt>
      <trkpt lat="43.53304" lon="5.30044">
        <ele>242</ele>
        <time>2021-02-03T13:47:17Z</time>
      </trkpt>
      <trkpt lat="43.53311" lon="5.30036">
        <ele>242.6</ele>
        <time>2021-02-03T13:47:25Z</time>
      </trkpt>
      <trkpt lat="43.53318" lon="5.3003">
        <ele>243.3</ele>
        <time>2021-02-03T13:47:32Z</time>
      </trkpt>
      <trkpt lat="43.53325" lon="5.30023">
        <ele>243.8</ele>
        <time>2021-02-03T13:47:39Z</time>
      </trkpt>
      <trkpt lat="43.53332" lon="5.30019">
        <ele>244.3</ele>
        <time>2021-02-03T13:47:46Z</time>
      </trkpt>
      <trkpt lat="43.53339" lon="5.30013">
        <ele>244.5</ele>
        <time>2021-02-03T13:47:54Z</time>
      </trkpt>
      <trkpt lat="43.53345" lon="5.30004">
        <ele>244.7</ele>
        <time>2021-02-03T13:48:03Z</time>
      </trkpt>
      <trkpt lat="43.53352" lon="5.29999">
        <ele>244.8</ele>
        <time>2021-02-03T13:48:11Z</time>
      </trkpt>
      <trkpt lat="43.5336" lon="5.29994">
        <ele>244.7</ele>
        <time>2021-02-03T13:48:19Z</time>
      </trkpt>
      <trkpt lat="43.53367" lon="5.29986">
        <ele>244.7</ele>
        <time>2021-02-03T13:48:28Z</time>
      </trkpt>
      <trkpt lat="43.53374" lon="5.29979">
        <ele>244.8</ele>
        <time>2021-02-03T13:48:36Z</time>
      </trkpt>
      <trkpt lat="43.53368" lon="5.29982">
        <ele>244.8</ele>
        <time>2021-02-03T13:50:18Z</time>
      </trkpt>
      <trkpt lat="43.53368" lon="5.29982">
        <ele>244.8</ele>
        <time>2021-02-03T13:50:19Z</time>
      </trkpt>
      <trkpt lat="43.5337" lon="5.29984">
        <ele>244.7</ele>
        <time>2021-02-03T13:50:23Z</time>
      </trkpt>
      <trkpt lat="43.53377" lon="5.29978">
        <ele>244.8</ele>
        <time>2021-02-03T13:52:58Z</time>
      </trkpt>
      <trkpt lat="43.53384" lon="5.2997">
        <ele>244.8</ele>
        <time>2021-02-03T13:53:07Z</time>
      </trkpt>
      <trkpt lat="43.53389" lon="5.29961">
        <ele>245</ele>
        <time>2021-02-03T13:53:15Z</time>
      </trkpt>
      <trkpt lat="43.53395" lon="5.29955">
        <ele>245.1</ele>
        <time>2021-02-03T13:53:21Z</time>
      </trkpt>
      <trkpt lat="43.53403" lon="5.29949">
        <ele>245.2</ele>
        <time>2021-02-03T13:53:28Z</time>
      </trkpt>
      <trkpt lat="43.5341" lon="5.29944">
        <ele>245.3</ele>
        <time>2021-02-03T13:53:35Z</time>
      </trkpt>
      <trkpt lat="43.53417" lon="5.29938">
        <ele>245.5</ele>
        <time>2021-02-03T13:53:42Z</time>
      </trkpt>
      <trkpt lat="43.53424" lon="5.29931">
        <ele>245.3</ele>
        <time>2021-02-03T13:53:49Z</time>
      </trkpt>
      <trkpt lat="43.53432" lon="5.29925">
        <ele>245.2</ele>
        <time>2021-02-03T13:53:56Z</time>
      </trkpt>
      <trkpt lat="43.5344" lon="5.29922">
        <ele>244.9</ele>
        <time>2021-02-03T13:54:07Z</time>
      </trkpt>
      <trkpt lat="43.53447" lon="5.29915">
        <ele>244.9</ele>
        <time>2021-02-03T13:54:17Z</time>
      </trkpt>
      <trkpt lat="43.53443" lon="5.2991">
        <ele>245</ele>
        <time>2021-02-03T13:55:18Z</time>
      </trkpt>
      <trkpt lat="43.53443" lon="5.2991">
        <ele>245</ele>
        <time>2021-02-03T13:55:18Z</time>
      </trkpt>
    </trkseg>
  </trk>
</gpx>